<?xml version="1.0" encoding="UTF-8" standalone="no" ?>
<gpx xmlns="http://www.topografix.com/GPX/1/1" xmlns:xsi="http://www.w3.org/2001/XMLSchema-instance" xsi:schemaLocation="http://www.topografix.com/GPX/1/1 http://www.topografix.com/GPX/1/1/gpx.xsd" version="1.1" creator="VisuGPX - https://www.visugpx.com">
  <metadata>
    <name>Tracé actuel: 04 JUIL 2021 08:48</name>
  </metadata>
  <trk>
    <name><![CDATA[Tracé actuel: 04 JUIL 2021 08:48]]></name>
    <trkseg>
      <trkpt lat="43.40458" lon="-0.56856">
        <ele>130.4</ele>
        <time>2021-07-04T06:48:32Z</time>
      </trkpt>
      <trkpt lat="43.40482" lon="-0.56678">
        <ele>135.2</ele>
        <time>2021-07-04T06:49:04Z</time>
      </trkpt>
      <trkpt lat="43.40501" lon="-0.56671">
        <ele>136.16</ele>
        <time>2021-07-04T06:49:15Z</time>
      </trkpt>
      <trkpt lat="43.40556" lon="-0.56656">
        <ele>137.61</ele>
        <time>2021-07-04T06:49:31Z</time>
      </trkpt>
      <trkpt lat="43.4057" lon="-0.56647">
        <ele>138.09</ele>
        <time>2021-07-04T06:49:35Z</time>
      </trkpt>
      <trkpt lat="43.40573" lon="-0.56642">
        <ele>138.09</ele>
        <time>2021-07-04T06:49:36Z</time>
      </trkpt>
      <trkpt lat="43.40575" lon="-0.56638">
        <ele>138.09</ele>
        <time>2021-07-04T06:49:37Z</time>
      </trkpt>
      <trkpt lat="43.40577" lon="-0.56632">
        <ele>138.09</ele>
        <time>2021-07-04T06:49:38Z</time>
      </trkpt>
      <trkpt lat="43.40577" lon="-0.56627">
        <ele>138.09</ele>
        <time>2021-07-04T06:49:39Z</time>
      </trkpt>
      <trkpt lat="43.40577" lon="-0.56621">
        <ele>138.09</ele>
        <time>2021-07-04T06:49:40Z</time>
      </trkpt>
      <trkpt lat="43.40576" lon="-0.56614">
        <ele>138.09</ele>
        <time>2021-07-04T06:49:41Z</time>
      </trkpt>
      <trkpt lat="43.40575" lon="-0.56609">
        <ele>138.09</ele>
        <time>2021-07-04T06:49:42Z</time>
      </trkpt>
      <trkpt lat="43.40574" lon="-0.56605">
        <ele>137.61</ele>
        <time>2021-07-04T06:49:43Z</time>
      </trkpt>
      <trkpt lat="43.40532" lon="-0.56555">
        <ele>136.64</ele>
        <time>2021-07-04T06:49:55Z</time>
      </trkpt>
      <trkpt lat="43.40494" lon="-0.565">
        <ele>136.16</ele>
        <time>2021-07-04T06:50:07Z</time>
      </trkpt>
      <trkpt lat="43.40491" lon="-0.56496">
        <ele>136.16</ele>
        <time>2021-07-04T06:50:08Z</time>
      </trkpt>
      <trkpt lat="43.40488" lon="-0.56491">
        <ele>136.16</ele>
        <time>2021-07-04T06:50:09Z</time>
      </trkpt>
      <trkpt lat="43.40482" lon="-0.56481">
        <ele>136.16</ele>
        <time>2021-07-04T06:50:11Z</time>
      </trkpt>
      <trkpt lat="43.40428" lon="-0.56404">
        <ele>137.13</ele>
        <time>2021-07-04T06:50:28Z</time>
      </trkpt>
      <trkpt lat="43.404" lon="-0.56361">
        <ele>137.13</ele>
        <time>2021-07-04T06:50:37Z</time>
      </trkpt>
      <trkpt lat="43.40365" lon="-0.56269">
        <ele>137.61</ele>
        <time>2021-07-04T06:50:53Z</time>
      </trkpt>
      <trkpt lat="43.40335" lon="-0.5621">
        <ele>138.57</ele>
        <time>2021-07-04T06:51:07Z</time>
      </trkpt>
      <trkpt lat="43.40332" lon="-0.56209">
        <ele>138.57</ele>
        <time>2021-07-04T06:51:09Z</time>
      </trkpt>
      <trkpt lat="43.40331" lon="-0.56207">
        <ele>138.57</ele>
        <time>2021-07-04T06:51:10Z</time>
      </trkpt>
      <trkpt lat="43.4033" lon="-0.56204">
        <ele>139.05</ele>
        <time>2021-07-04T06:51:11Z</time>
      </trkpt>
      <trkpt lat="43.4033" lon="-0.562">
        <ele>138.57</ele>
        <time>2021-07-04T06:51:12Z</time>
      </trkpt>
      <trkpt lat="43.40331" lon="-0.56195">
        <ele>138.57</ele>
        <time>2021-07-04T06:51:13Z</time>
      </trkpt>
      <trkpt lat="43.40333" lon="-0.56192">
        <ele>138.57</ele>
        <time>2021-07-04T06:51:14Z</time>
      </trkpt>
      <trkpt lat="43.40335" lon="-0.56187">
        <ele>138.09</ele>
        <time>2021-07-04T06:51:15Z</time>
      </trkpt>
      <trkpt lat="43.4036" lon="-0.56137">
        <ele>137.61</ele>
        <time>2021-07-04T06:51:25Z</time>
      </trkpt>
      <trkpt lat="43.40365" lon="-0.56128">
        <ele>137.13</ele>
        <time>2021-07-04T06:51:27Z</time>
      </trkpt>
      <trkpt lat="43.40375" lon="-0.56116">
        <ele>137.13</ele>
        <time>2021-07-04T06:51:30Z</time>
      </trkpt>
      <trkpt lat="43.40379" lon="-0.56113">
        <ele>137.61</ele>
        <time>2021-07-04T06:51:31Z</time>
      </trkpt>
      <trkpt lat="43.40449" lon="-0.56071">
        <ele>136.64</ele>
        <time>2021-07-04T06:51:48Z</time>
      </trkpt>
      <trkpt lat="43.40487" lon="-0.56036">
        <ele>136.16</ele>
        <time>2021-07-04T06:52:02Z</time>
      </trkpt>
      <trkpt lat="43.40479" lon="-0.55965">
        <ele>136.16</ele>
        <time>2021-07-04T06:52:17Z</time>
      </trkpt>
      <trkpt lat="43.40469" lon="-0.55872">
        <ele>136.16</ele>
        <time>2021-07-04T06:52:35Z</time>
      </trkpt>
      <trkpt lat="43.40446" lon="-0.55814">
        <ele>136.16</ele>
        <time>2021-07-04T06:52:48Z</time>
      </trkpt>
      <trkpt lat="43.40395" lon="-0.55762">
        <ele>136.16</ele>
        <time>2021-07-04T06:53:04Z</time>
      </trkpt>
      <trkpt lat="43.40335" lon="-0.55701">
        <ele>136.16</ele>
        <time>2021-07-04T06:53:23Z</time>
      </trkpt>
      <trkpt lat="43.40332" lon="-0.55669">
        <ele>135.68</ele>
        <time>2021-07-04T06:53:29Z</time>
      </trkpt>
      <trkpt lat="43.40332" lon="-0.55663">
        <ele>135.68</ele>
        <time>2021-07-04T06:53:30Z</time>
      </trkpt>
      <trkpt lat="43.40324" lon="-0.55603">
        <ele>135.68</ele>
        <time>2021-07-04T06:53:42Z</time>
      </trkpt>
      <trkpt lat="43.40321" lon="-0.55601">
        <ele>136.16</ele>
        <time>2021-07-04T06:53:43Z</time>
      </trkpt>
      <trkpt lat="43.40319" lon="-0.55601">
        <ele>136.16</ele>
        <time>2021-07-04T06:53:44Z</time>
      </trkpt>
      <trkpt lat="43.40261" lon="-0.55596">
        <ele>137.13</ele>
        <time>2021-07-04T06:53:59Z</time>
      </trkpt>
      <trkpt lat="43.40173" lon="-0.5559">
        <ele>137.61</ele>
        <time>2021-07-04T06:54:21Z</time>
      </trkpt>
      <trkpt lat="43.4013" lon="-0.55585">
        <ele>138.09</ele>
        <time>2021-07-04T06:54:32Z</time>
      </trkpt>
      <trkpt lat="43.40127" lon="-0.55588">
        <ele>138.09</ele>
        <time>2021-07-04T06:54:33Z</time>
      </trkpt>
      <trkpt lat="43.40125" lon="-0.55592">
        <ele>138.09</ele>
        <time>2021-07-04T06:54:34Z</time>
      </trkpt>
      <trkpt lat="43.40124" lon="-0.55595">
        <ele>138.09</ele>
        <time>2021-07-04T06:54:35Z</time>
      </trkpt>
      <trkpt lat="43.40123" lon="-0.55599">
        <ele>138.09</ele>
        <time>2021-07-04T06:54:36Z</time>
      </trkpt>
      <trkpt lat="43.40114" lon="-0.55664">
        <ele>138.09</ele>
        <time>2021-07-04T06:54:48Z</time>
      </trkpt>
      <trkpt lat="43.40102" lon="-0.55725">
        <ele>138.57</ele>
        <time>2021-07-04T06:55:01Z</time>
      </trkpt>
      <trkpt lat="43.401" lon="-0.55729">
        <ele>138.57</ele>
        <time>2021-07-04T06:55:02Z</time>
      </trkpt>
      <trkpt lat="43.40098" lon="-0.55731">
        <ele>138.09</ele>
        <time>2021-07-04T06:55:03Z</time>
      </trkpt>
      <trkpt lat="43.40095" lon="-0.55732">
        <ele>137.61</ele>
        <time>2021-07-04T06:55:04Z</time>
      </trkpt>
      <trkpt lat="43.40091" lon="-0.55731">
        <ele>137.61</ele>
        <time>2021-07-04T06:55:05Z</time>
      </trkpt>
      <trkpt lat="43.40089" lon="-0.55727">
        <ele>137.61</ele>
        <time>2021-07-04T06:55:06Z</time>
      </trkpt>
      <trkpt lat="43.40088" lon="-0.55724">
        <ele>137.61</ele>
        <time>2021-07-04T06:55:07Z</time>
      </trkpt>
      <trkpt lat="43.40087" lon="-0.55719">
        <ele>137.61</ele>
        <time>2021-07-04T06:55:08Z</time>
      </trkpt>
      <trkpt lat="43.40087" lon="-0.55713">
        <ele>137.61</ele>
        <time>2021-07-04T06:55:09Z</time>
      </trkpt>
      <trkpt lat="43.40097" lon="-0.55623">
        <ele>139.05</ele>
        <time>2021-07-04T06:55:24Z</time>
      </trkpt>
      <trkpt lat="43.40113" lon="-0.55509">
        <ele>140.97</ele>
        <time>2021-07-04T06:55:44Z</time>
      </trkpt>
      <trkpt lat="43.40135" lon="-0.55391">
        <ele>143.37</ele>
        <time>2021-07-04T06:56:06Z</time>
      </trkpt>
      <trkpt lat="43.40144" lon="-0.55346">
        <ele>143.85</ele>
        <time>2021-07-04T06:56:14Z</time>
      </trkpt>
      <trkpt lat="43.40151" lon="-0.55309">
        <ele>144.34</ele>
        <time>2021-07-04T06:56:20Z</time>
      </trkpt>
      <trkpt lat="43.40171" lon="-0.55192">
        <ele>142.89</ele>
        <time>2021-07-04T06:56:36Z</time>
      </trkpt>
      <trkpt lat="43.40195" lon="-0.55066">
        <ele>140.01</ele>
        <time>2021-07-04T06:56:51Z</time>
      </trkpt>
      <trkpt lat="43.4023" lon="-0.54948">
        <ele>140.49</ele>
        <time>2021-07-04T06:57:07Z</time>
      </trkpt>
      <trkpt lat="43.4027" lon="-0.54831">
        <ele>141.45</ele>
        <time>2021-07-04T06:57:25Z</time>
      </trkpt>
      <trkpt lat="43.40324" lon="-0.54672">
        <ele>144.82</ele>
        <time>2021-07-04T06:57:49Z</time>
      </trkpt>
      <trkpt lat="43.4036" lon="-0.5458">
        <ele>145.3</ele>
        <time>2021-07-04T06:58:03Z</time>
      </trkpt>
      <trkpt lat="43.40419" lon="-0.54484">
        <ele>146.26</ele>
        <time>2021-07-04T06:58:20Z</time>
      </trkpt>
      <trkpt lat="43.40447" lon="-0.54375">
        <ele>147.7</ele>
        <time>2021-07-04T06:58:36Z</time>
      </trkpt>
      <trkpt lat="43.40474" lon="-0.54247">
        <ele>148.66</ele>
        <time>2021-07-04T06:58:55Z</time>
      </trkpt>
      <trkpt lat="43.40505" lon="-0.54113">
        <ele>150.58</ele>
        <time>2021-07-04T06:59:15Z</time>
      </trkpt>
      <trkpt lat="43.40528" lon="-0.54001">
        <ele>151.06</ele>
        <time>2021-07-04T06:59:32Z</time>
      </trkpt>
      <trkpt lat="43.40552" lon="-0.53864">
        <ele>152.03</ele>
        <time>2021-07-04T06:59:52Z</time>
      </trkpt>
      <trkpt lat="43.4055" lon="-0.53859">
        <ele>151.54</ele>
        <time>2021-07-04T06:59:53Z</time>
      </trkpt>
      <trkpt lat="43.40546" lon="-0.53855">
        <ele>151.54</ele>
        <time>2021-07-04T06:59:54Z</time>
      </trkpt>
      <trkpt lat="43.40541" lon="-0.53853">
        <ele>151.54</ele>
        <time>2021-07-04T06:59:55Z</time>
      </trkpt>
      <trkpt lat="43.40536" lon="-0.53852">
        <ele>151.54</ele>
        <time>2021-07-04T06:59:56Z</time>
      </trkpt>
      <trkpt lat="43.40529" lon="-0.53851">
        <ele>151.06</ele>
        <time>2021-07-04T06:59:57Z</time>
      </trkpt>
      <trkpt lat="43.40442" lon="-0.53848">
        <ele>152.99</ele>
        <time>2021-07-04T07:00:11Z</time>
      </trkpt>
      <trkpt lat="43.40385" lon="-0.53861">
        <ele>151.54</ele>
        <time>2021-07-04T07:00:21Z</time>
      </trkpt>
      <trkpt lat="43.40297" lon="-0.53886">
        <ele>150.1</ele>
        <time>2021-07-04T07:00:37Z</time>
      </trkpt>
      <trkpt lat="43.40264" lon="-0.53899">
        <ele>151.06</ele>
        <time>2021-07-04T07:00:44Z</time>
      </trkpt>
      <trkpt lat="43.40259" lon="-0.539">
        <ele>151.06</ele>
        <time>2021-07-04T07:00:45Z</time>
      </trkpt>
      <trkpt lat="43.40244" lon="-0.539">
        <ele>151.54</ele>
        <time>2021-07-04T07:00:48Z</time>
      </trkpt>
      <trkpt lat="43.40203" lon="-0.53891">
        <ele>153.47</ele>
        <time>2021-07-04T07:00:57Z</time>
      </trkpt>
      <trkpt lat="43.40172" lon="-0.5389">
        <ele>152.99</ele>
        <time>2021-07-04T07:01:04Z</time>
      </trkpt>
      <trkpt lat="43.40168" lon="-0.53888">
        <ele>152.51</ele>
        <time>2021-07-04T07:01:05Z</time>
      </trkpt>
      <trkpt lat="43.40164" lon="-0.53883">
        <ele>152.51</ele>
        <time>2021-07-04T07:01:06Z</time>
      </trkpt>
      <trkpt lat="43.40163" lon="-0.53876">
        <ele>152.99</ele>
        <time>2021-07-04T07:01:07Z</time>
      </trkpt>
      <trkpt lat="43.40163" lon="-0.53872">
        <ele>152.99</ele>
        <time>2021-07-04T07:01:08Z</time>
      </trkpt>
      <trkpt lat="43.40163" lon="-0.53868">
        <ele>153.47</ele>
        <time>2021-07-04T07:01:09Z</time>
      </trkpt>
      <trkpt lat="43.40164" lon="-0.53864">
        <ele>153.95</ele>
        <time>2021-07-04T07:01:10Z</time>
      </trkpt>
      <trkpt lat="43.40173" lon="-0.53821">
        <ele>156.83</ele>
        <time>2021-07-04T07:01:24Z</time>
      </trkpt>
      <trkpt lat="43.4018" lon="-0.53765">
        <ele>160.68</ele>
        <time>2021-07-04T07:01:43Z</time>
      </trkpt>
      <trkpt lat="43.40188" lon="-0.53726">
        <ele>165</ele>
        <time>2021-07-04T07:02:00Z</time>
      </trkpt>
      <trkpt lat="43.40201" lon="-0.53696">
        <ele>170.29</ele>
        <time>2021-07-04T07:02:15Z</time>
      </trkpt>
      <trkpt lat="43.40214" lon="-0.53663">
        <ele>174.14</ele>
        <time>2021-07-04T07:02:33Z</time>
      </trkpt>
      <trkpt lat="43.40207" lon="-0.53623">
        <ele>178.94</ele>
        <time>2021-07-04T07:02:53Z</time>
      </trkpt>
      <trkpt lat="43.402" lon="-0.5358">
        <ele>183.27</ele>
        <time>2021-07-04T07:03:13Z</time>
      </trkpt>
      <trkpt lat="43.40198" lon="-0.53564">
        <ele>185.67</ele>
        <time>2021-07-04T07:03:21Z</time>
      </trkpt>
      <trkpt lat="43.40199" lon="-0.53563">
        <ele>185.67</ele>
        <time>2021-07-04T07:03:22Z</time>
      </trkpt>
      <trkpt lat="43.40201" lon="-0.53563">
        <ele>185.67</ele>
        <time>2021-07-04T07:03:23Z</time>
      </trkpt>
      <trkpt lat="43.40202" lon="-0.53563">
        <ele>185.67</ele>
        <time>2021-07-04T07:03:24Z</time>
      </trkpt>
      <trkpt lat="43.40203" lon="-0.53564">
        <ele>185.67</ele>
        <time>2021-07-04T07:03:25Z</time>
      </trkpt>
      <trkpt lat="43.40204" lon="-0.53565">
        <ele>185.67</ele>
        <time>2021-07-04T07:03:26Z</time>
      </trkpt>
      <trkpt lat="43.40205" lon="-0.53567">
        <ele>185.67</ele>
        <time>2021-07-04T07:03:27Z</time>
      </trkpt>
      <trkpt lat="43.40207" lon="-0.53568">
        <ele>185.67</ele>
        <time>2021-07-04T07:03:28Z</time>
      </trkpt>
      <trkpt lat="43.40208" lon="-0.5357">
        <ele>185.67</ele>
        <time>2021-07-04T07:03:29Z</time>
      </trkpt>
      <trkpt lat="43.40209" lon="-0.53571">
        <ele>185.67</ele>
        <time>2021-07-04T07:03:30Z</time>
      </trkpt>
      <trkpt lat="43.4021" lon="-0.53573">
        <ele>186.15</ele>
        <time>2021-07-04T07:03:31Z</time>
      </trkpt>
      <trkpt lat="43.40212" lon="-0.53574">
        <ele>186.15</ele>
        <time>2021-07-04T07:03:32Z</time>
      </trkpt>
      <trkpt lat="43.4023" lon="-0.53584">
        <ele>189.04</ele>
        <time>2021-07-04T07:03:45Z</time>
      </trkpt>
      <trkpt lat="43.40252" lon="-0.53604">
        <ele>195.28</ele>
        <time>2021-07-04T07:04:02Z</time>
      </trkpt>
      <trkpt lat="43.40271" lon="-0.53621">
        <ele>201.05</ele>
        <time>2021-07-04T07:04:16Z</time>
      </trkpt>
      <trkpt lat="43.40288" lon="-0.53639">
        <ele>201.05</ele>
        <time>2021-07-04T07:04:24Z</time>
      </trkpt>
      <trkpt lat="43.4029" lon="-0.53639">
        <ele>201.05</ele>
        <time>2021-07-04T07:04:25Z</time>
      </trkpt>
      <trkpt lat="43.40293" lon="-0.53638">
        <ele>200.57</ele>
        <time>2021-07-04T07:04:26Z</time>
      </trkpt>
      <trkpt lat="43.40295" lon="-0.53638">
        <ele>200.57</ele>
        <time>2021-07-04T07:04:27Z</time>
      </trkpt>
      <trkpt lat="43.40297" lon="-0.53637">
        <ele>200.57</ele>
        <time>2021-07-04T07:04:28Z</time>
      </trkpt>
      <trkpt lat="43.403" lon="-0.53636">
        <ele>200.57</ele>
        <time>2021-07-04T07:04:29Z</time>
      </trkpt>
      <trkpt lat="43.40303" lon="-0.53635">
        <ele>200.57</ele>
        <time>2021-07-04T07:04:30Z</time>
      </trkpt>
      <trkpt lat="43.40306" lon="-0.53633">
        <ele>200.09</ele>
        <time>2021-07-04T07:04:31Z</time>
      </trkpt>
      <trkpt lat="43.40309" lon="-0.53631">
        <ele>200.09</ele>
        <time>2021-07-04T07:04:32Z</time>
      </trkpt>
      <trkpt lat="43.40311" lon="-0.53629">
        <ele>200.09</ele>
        <time>2021-07-04T07:04:33Z</time>
      </trkpt>
      <trkpt lat="43.40314" lon="-0.53627">
        <ele>200.57</ele>
        <time>2021-07-04T07:04:34Z</time>
      </trkpt>
      <trkpt lat="43.40316" lon="-0.53625">
        <ele>200.57</ele>
        <time>2021-07-04T07:04:35Z</time>
      </trkpt>
      <trkpt lat="43.40319" lon="-0.53624">
        <ele>200.57</ele>
        <time>2021-07-04T07:04:36Z</time>
      </trkpt>
      <trkpt lat="43.40351" lon="-0.53599">
        <ele>201.05</ele>
        <time>2021-07-04T07:04:48Z</time>
      </trkpt>
      <trkpt lat="43.40376" lon="-0.5356">
        <ele>202.01</ele>
        <time>2021-07-04T07:04:59Z</time>
      </trkpt>
      <trkpt lat="43.40378" lon="-0.53548">
        <ele>202.98</ele>
        <time>2021-07-04T07:05:01Z</time>
      </trkpt>
      <trkpt lat="43.40379" lon="-0.53543">
        <ele>202.98</ele>
        <time>2021-07-04T07:05:02Z</time>
      </trkpt>
      <trkpt lat="43.40379" lon="-0.53538">
        <ele>203.46</ele>
        <time>2021-07-04T07:05:03Z</time>
      </trkpt>
      <trkpt lat="43.4038" lon="-0.53534">
        <ele>203.46</ele>
        <time>2021-07-04T07:05:04Z</time>
      </trkpt>
      <trkpt lat="43.4038" lon="-0.5353">
        <ele>203.94</ele>
        <time>2021-07-04T07:05:05Z</time>
      </trkpt>
      <trkpt lat="43.4038" lon="-0.53526">
        <ele>203.94</ele>
        <time>2021-07-04T07:05:06Z</time>
      </trkpt>
      <trkpt lat="43.4039" lon="-0.53485">
        <ele>205.38</ele>
        <time>2021-07-04T07:05:16Z</time>
      </trkpt>
      <trkpt lat="43.40394" lon="-0.53463">
        <ele>205.38</ele>
        <time>2021-07-04T07:05:20Z</time>
      </trkpt>
      <trkpt lat="43.40395" lon="-0.5345">
        <ele>204.9</ele>
        <time>2021-07-04T07:05:22Z</time>
      </trkpt>
      <trkpt lat="43.40393" lon="-0.53422">
        <ele>203.94</ele>
        <time>2021-07-04T07:05:26Z</time>
      </trkpt>
      <trkpt lat="43.40391" lon="-0.53416">
        <ele>203.46</ele>
        <time>2021-07-04T07:05:27Z</time>
      </trkpt>
      <trkpt lat="43.4039" lon="-0.53409">
        <ele>203.46</ele>
        <time>2021-07-04T07:05:28Z</time>
      </trkpt>
      <trkpt lat="43.4038" lon="-0.53355">
        <ele>202.49</ele>
        <time>2021-07-04T07:05:39Z</time>
      </trkpt>
      <trkpt lat="43.40377" lon="-0.5334">
        <ele>202.01</ele>
        <time>2021-07-04T07:05:42Z</time>
      </trkpt>
      <trkpt lat="43.40368" lon="-0.53312">
        <ele>200.09</ele>
        <time>2021-07-04T07:05:46Z</time>
      </trkpt>
      <trkpt lat="43.40361" lon="-0.53296">
        <ele>198.17</ele>
        <time>2021-07-04T07:05:48Z</time>
      </trkpt>
      <trkpt lat="43.40358" lon="-0.53289">
        <ele>197.69</ele>
        <time>2021-07-04T07:05:49Z</time>
      </trkpt>
      <trkpt lat="43.40354" lon="-0.53282">
        <ele>196.73</ele>
        <time>2021-07-04T07:05:50Z</time>
      </trkpt>
      <trkpt lat="43.40352" lon="-0.53274">
        <ele>195.77</ele>
        <time>2021-07-04T07:05:51Z</time>
      </trkpt>
      <trkpt lat="43.40351" lon="-0.53268">
        <ele>194.8</ele>
        <time>2021-07-04T07:05:52Z</time>
      </trkpt>
      <trkpt lat="43.40347" lon="-0.53245">
        <ele>193.36</ele>
        <time>2021-07-04T07:05:56Z</time>
      </trkpt>
      <trkpt lat="43.40347" lon="-0.53239">
        <ele>192.88</ele>
        <time>2021-07-04T07:05:57Z</time>
      </trkpt>
      <trkpt lat="43.40346" lon="-0.53234">
        <ele>192.88</ele>
        <time>2021-07-04T07:05:58Z</time>
      </trkpt>
      <trkpt lat="43.40346" lon="-0.53228">
        <ele>192.88</ele>
        <time>2021-07-04T07:05:59Z</time>
      </trkpt>
      <trkpt lat="43.40346" lon="-0.53223">
        <ele>192.88</ele>
        <time>2021-07-04T07:06:00Z</time>
      </trkpt>
      <trkpt lat="43.40353" lon="-0.53161">
        <ele>195.28</ele>
        <time>2021-07-04T07:06:12Z</time>
      </trkpt>
      <trkpt lat="43.4036" lon="-0.53101">
        <ele>201.53</ele>
        <time>2021-07-04T07:06:25Z</time>
      </trkpt>
      <trkpt lat="43.40346" lon="-0.53037">
        <ele>203.46</ele>
        <time>2021-07-04T07:06:37Z</time>
      </trkpt>
      <trkpt lat="43.40343" lon="-0.53031">
        <ele>203.46</ele>
        <time>2021-07-04T07:06:38Z</time>
      </trkpt>
      <trkpt lat="43.40339" lon="-0.53017">
        <ele>203.46</ele>
        <time>2021-07-04T07:06:40Z</time>
      </trkpt>
      <trkpt lat="43.40336" lon="-0.53006">
        <ele>203.46</ele>
        <time>2021-07-04T07:06:41Z</time>
      </trkpt>
      <trkpt lat="43.40333" lon="-0.52984">
        <ele>203.46</ele>
        <time>2021-07-04T07:06:43Z</time>
      </trkpt>
      <trkpt lat="43.40332" lon="-0.52873">
        <ele>200.57</ele>
        <time>2021-07-04T07:06:54Z</time>
      </trkpt>
      <trkpt lat="43.40333" lon="-0.52822">
        <ele>196.25</ele>
        <time>2021-07-04T07:07:03Z</time>
      </trkpt>
      <trkpt lat="43.40334" lon="-0.52762">
        <ele>192.4</ele>
        <time>2021-07-04T07:07:13Z</time>
      </trkpt>
      <trkpt lat="43.40344" lon="-0.5274">
        <ele>192.4</ele>
        <time>2021-07-04T07:07:20Z</time>
      </trkpt>
      <trkpt lat="43.40344" lon="-0.52698">
        <ele>192.88</ele>
        <time>2021-07-04T07:07:27Z</time>
      </trkpt>
      <trkpt lat="43.40348" lon="-0.52673">
        <ele>193.36</ele>
        <time>2021-07-04T07:07:30Z</time>
      </trkpt>
      <trkpt lat="43.40348" lon="-0.52667">
        <ele>193.84</ele>
        <time>2021-07-04T07:07:31Z</time>
      </trkpt>
      <trkpt lat="43.40349" lon="-0.52662">
        <ele>193.84</ele>
        <time>2021-07-04T07:07:32Z</time>
      </trkpt>
      <trkpt lat="43.40349" lon="-0.52646">
        <ele>194.8</ele>
        <time>2021-07-04T07:07:37Z</time>
      </trkpt>
      <trkpt lat="43.40348" lon="-0.52643">
        <ele>194.8</ele>
        <time>2021-07-04T07:07:38Z</time>
      </trkpt>
      <trkpt lat="43.4034" lon="-0.52605">
        <ele>195.28</ele>
        <time>2021-07-04T07:07:49Z</time>
      </trkpt>
      <trkpt lat="43.4034" lon="-0.52594">
        <ele>194.8</ele>
        <time>2021-07-04T07:07:52Z</time>
      </trkpt>
      <trkpt lat="43.40339" lon="-0.52591">
        <ele>194.8</ele>
        <time>2021-07-04T07:07:53Z</time>
      </trkpt>
      <trkpt lat="43.40338" lon="-0.52589">
        <ele>194.32</ele>
        <time>2021-07-04T07:07:54Z</time>
      </trkpt>
      <trkpt lat="43.40331" lon="-0.5256">
        <ele>193.36</ele>
        <time>2021-07-04T07:08:03Z</time>
      </trkpt>
      <trkpt lat="43.40329" lon="-0.52552">
        <ele>193.36</ele>
        <time>2021-07-04T07:08:07Z</time>
      </trkpt>
      <trkpt lat="43.40329" lon="-0.52549">
        <ele>192.88</ele>
        <time>2021-07-04T07:08:08Z</time>
      </trkpt>
      <trkpt lat="43.40323" lon="-0.52525">
        <ele>190.96</ele>
        <time>2021-07-04T07:08:15Z</time>
      </trkpt>
      <trkpt lat="43.40321" lon="-0.52523">
        <ele>190.96</ele>
        <time>2021-07-04T07:08:16Z</time>
      </trkpt>
      <trkpt lat="43.40319" lon="-0.52521">
        <ele>190.48</ele>
        <time>2021-07-04T07:08:17Z</time>
      </trkpt>
      <trkpt lat="43.40303" lon="-0.52496">
        <ele>188.56</ele>
        <time>2021-07-04T07:08:26Z</time>
      </trkpt>
      <trkpt lat="43.40302" lon="-0.52493">
        <ele>188.08</ele>
        <time>2021-07-04T07:08:27Z</time>
      </trkpt>
      <trkpt lat="43.40283" lon="-0.52455">
        <ele>188.56</ele>
        <time>2021-07-04T07:08:39Z</time>
      </trkpt>
      <trkpt lat="43.40271" lon="-0.5244">
        <ele>189.04</ele>
        <time>2021-07-04T07:08:45Z</time>
      </trkpt>
      <trkpt lat="43.40272" lon="-0.52409">
        <ele>192.88</ele>
        <time>2021-07-04T07:08:59Z</time>
      </trkpt>
      <trkpt lat="43.40275" lon="-0.52391">
        <ele>194.8</ele>
        <time>2021-07-04T07:09:18Z</time>
      </trkpt>
      <trkpt lat="43.40278" lon="-0.52389">
        <ele>194.32</ele>
        <time>2021-07-04T07:09:21Z</time>
      </trkpt>
      <trkpt lat="43.40282" lon="-0.52389">
        <ele>193.84</ele>
        <time>2021-07-04T07:09:25Z</time>
      </trkpt>
      <trkpt lat="43.40296" lon="-0.52378">
        <ele>193.36</ele>
        <time>2021-07-04T07:09:35Z</time>
      </trkpt>
      <trkpt lat="43.40309" lon="-0.52349">
        <ele>192.4</ele>
        <time>2021-07-04T07:09:53Z</time>
      </trkpt>
      <trkpt lat="43.40313" lon="-0.52325">
        <ele>191.44</ele>
        <time>2021-07-04T07:10:07Z</time>
      </trkpt>
      <trkpt lat="43.40313" lon="-0.52303">
        <ele>190</ele>
        <time>2021-07-04T07:10:21Z</time>
      </trkpt>
      <trkpt lat="43.403" lon="-0.52288">
        <ele>188.08</ele>
        <time>2021-07-04T07:10:36Z</time>
      </trkpt>
      <trkpt lat="43.40287" lon="-0.52267">
        <ele>194.32</ele>
        <time>2021-07-04T07:10:49Z</time>
      </trkpt>
      <trkpt lat="43.40282" lon="-0.52259">
        <ele>196.25</ele>
        <time>2021-07-04T07:10:54Z</time>
      </trkpt>
      <trkpt lat="43.40273" lon="-0.52239">
        <ele>201.53</ele>
        <time>2021-07-04T07:11:07Z</time>
      </trkpt>
      <trkpt lat="43.40264" lon="-0.5222">
        <ele>205.38</ele>
        <time>2021-07-04T07:11:21Z</time>
      </trkpt>
      <trkpt lat="43.40258" lon="-0.52204">
        <ele>207.3</ele>
        <time>2021-07-04T07:11:32Z</time>
      </trkpt>
      <trkpt lat="43.40253" lon="-0.52181">
        <ele>209.22</ele>
        <time>2021-07-04T07:11:46Z</time>
      </trkpt>
      <trkpt lat="43.4025" lon="-0.52171">
        <ele>210.19</ele>
        <time>2021-07-04T07:11:53Z</time>
      </trkpt>
      <trkpt lat="43.40248" lon="-0.52167">
        <ele>210.67</ele>
        <time>2021-07-04T07:11:56Z</time>
      </trkpt>
      <trkpt lat="43.40246" lon="-0.52148">
        <ele>213.07</ele>
        <time>2021-07-04T07:12:05Z</time>
      </trkpt>
      <trkpt lat="43.40242" lon="-0.52119">
        <ele>215.47</ele>
        <time>2021-07-04T07:12:19Z</time>
      </trkpt>
      <trkpt lat="43.40241" lon="-0.52109">
        <ele>216.91</ele>
        <time>2021-07-04T07:12:24Z</time>
      </trkpt>
      <trkpt lat="43.40241" lon="-0.52099">
        <ele>217.88</ele>
        <time>2021-07-04T07:12:29Z</time>
      </trkpt>
      <trkpt lat="43.40241" lon="-0.52072">
        <ele>218.84</ele>
        <time>2021-07-04T07:12:43Z</time>
      </trkpt>
      <trkpt lat="43.40241" lon="-0.52045">
        <ele>220.28</ele>
        <time>2021-07-04T07:12:57Z</time>
      </trkpt>
      <trkpt lat="43.40241" lon="-0.52011">
        <ele>221.24</ele>
        <time>2021-07-04T07:13:14Z</time>
      </trkpt>
      <trkpt lat="43.4024" lon="-0.51982">
        <ele>222.2</ele>
        <time>2021-07-04T07:13:28Z</time>
      </trkpt>
      <trkpt lat="43.40242" lon="-0.51953">
        <ele>221.72</ele>
        <time>2021-07-04T07:13:43Z</time>
      </trkpt>
      <trkpt lat="43.4024" lon="-0.51921">
        <ele>224.12</ele>
        <time>2021-07-04T07:13:59Z</time>
      </trkpt>
      <trkpt lat="43.4024" lon="-0.51897">
        <ele>224.61</ele>
        <time>2021-07-04T07:14:11Z</time>
      </trkpt>
      <trkpt lat="43.40239" lon="-0.5187">
        <ele>227.49</ele>
        <time>2021-07-04T07:14:25Z</time>
      </trkpt>
      <trkpt lat="43.40241" lon="-0.51858">
        <ele>228.45</ele>
        <time>2021-07-04T07:14:31Z</time>
      </trkpt>
      <trkpt lat="43.40239" lon="-0.51822">
        <ele>232.78</ele>
        <time>2021-07-04T07:14:49Z</time>
      </trkpt>
      <trkpt lat="43.40239" lon="-0.51817">
        <ele>233.26</ele>
        <time>2021-07-04T07:14:51Z</time>
      </trkpt>
      <trkpt lat="43.4024" lon="-0.51795">
        <ele>234.7</ele>
        <time>2021-07-04T07:15:01Z</time>
      </trkpt>
      <trkpt lat="43.40241" lon="-0.51786">
        <ele>234.7</ele>
        <time>2021-07-04T07:15:05Z</time>
      </trkpt>
      <trkpt lat="43.40242" lon="-0.51755">
        <ele>238.06</ele>
        <time>2021-07-04T07:15:20Z</time>
      </trkpt>
      <trkpt lat="43.40241" lon="-0.51724">
        <ele>242.87</ele>
        <time>2021-07-04T07:15:34Z</time>
      </trkpt>
      <trkpt lat="43.40241" lon="-0.51697">
        <ele>244.31</ele>
        <time>2021-07-04T07:15:48Z</time>
      </trkpt>
      <trkpt lat="43.4024" lon="-0.51684">
        <ele>245.27</ele>
        <time>2021-07-04T07:15:53Z</time>
      </trkpt>
      <trkpt lat="43.40243" lon="-0.51651">
        <ele>249.6</ele>
        <time>2021-07-04T07:16:09Z</time>
      </trkpt>
      <trkpt lat="43.40253" lon="-0.51621">
        <ele>253.93</ele>
        <time>2021-07-04T07:16:25Z</time>
      </trkpt>
      <trkpt lat="43.4025" lon="-0.51615">
        <ele>255.37</ele>
        <time>2021-07-04T07:16:30Z</time>
      </trkpt>
      <trkpt lat="43.40234" lon="-0.51587">
        <ele>255.85</ele>
        <time>2021-07-04T07:16:47Z</time>
      </trkpt>
      <trkpt lat="43.40215" lon="-0.51553">
        <ele>254.89</ele>
        <time>2021-07-04T07:17:05Z</time>
      </trkpt>
      <trkpt lat="43.40195" lon="-0.51532">
        <ele>256.81</ele>
        <time>2021-07-04T07:17:20Z</time>
      </trkpt>
      <trkpt lat="43.40171" lon="-0.51508">
        <ele>257.77</ele>
        <time>2021-07-04T07:17:36Z</time>
      </trkpt>
      <trkpt lat="43.40148" lon="-0.5148">
        <ele>259.69</ele>
        <time>2021-07-04T07:17:52Z</time>
      </trkpt>
      <trkpt lat="43.40127" lon="-0.51446">
        <ele>260.17</ele>
        <time>2021-07-04T07:18:08Z</time>
      </trkpt>
      <trkpt lat="43.40115" lon="-0.51402">
        <ele>261.62</ele>
        <time>2021-07-04T07:18:24Z</time>
      </trkpt>
      <trkpt lat="43.40098" lon="-0.51336">
        <ele>264.02</ele>
        <time>2021-07-04T07:18:43Z</time>
      </trkpt>
      <trkpt lat="43.40079" lon="-0.51275">
        <ele>265.46</ele>
        <time>2021-07-04T07:19:01Z</time>
      </trkpt>
      <trkpt lat="43.40088" lon="-0.51239">
        <ele>266.42</ele>
        <time>2021-07-04T07:19:12Z</time>
      </trkpt>
      <trkpt lat="43.40129" lon="-0.51188">
        <ele>264.5</ele>
        <time>2021-07-04T07:19:26Z</time>
      </trkpt>
      <trkpt lat="43.40192" lon="-0.51137">
        <ele>262.58</ele>
        <time>2021-07-04T07:19:41Z</time>
      </trkpt>
      <trkpt lat="43.40196" lon="-0.51138">
        <ele>262.58</ele>
        <time>2021-07-04T07:19:42Z</time>
      </trkpt>
      <trkpt lat="43.4023" lon="-0.51153">
        <ele>261.62</ele>
        <time>2021-07-04T07:19:51Z</time>
      </trkpt>
      <trkpt lat="43.40233" lon="-0.51154">
        <ele>261.62</ele>
        <time>2021-07-04T07:19:52Z</time>
      </trkpt>
      <trkpt lat="43.40237" lon="-0.51157">
        <ele>262.1</ele>
        <time>2021-07-04T07:19:53Z</time>
      </trkpt>
      <trkpt lat="43.40241" lon="-0.51158">
        <ele>262.1</ele>
        <time>2021-07-04T07:19:54Z</time>
      </trkpt>
      <trkpt lat="43.40245" lon="-0.51159">
        <ele>262.1</ele>
        <time>2021-07-04T07:19:55Z</time>
      </trkpt>
      <trkpt lat="43.403" lon="-0.51183">
        <ele>262.1</ele>
        <time>2021-07-04T07:20:11Z</time>
      </trkpt>
      <trkpt lat="43.4032" lon="-0.51231">
        <ele>260.17</ele>
        <time>2021-07-04T07:20:22Z</time>
      </trkpt>
      <trkpt lat="43.40329" lon="-0.51247">
        <ele>259.21</ele>
        <time>2021-07-04T07:20:25Z</time>
      </trkpt>
      <trkpt lat="43.40332" lon="-0.51252">
        <ele>259.21</ele>
        <time>2021-07-04T07:20:26Z</time>
      </trkpt>
      <trkpt lat="43.40392" lon="-0.51324">
        <ele>254.41</ele>
        <time>2021-07-04T07:20:42Z</time>
      </trkpt>
      <trkpt lat="43.40442" lon="-0.514">
        <ele>250.56</ele>
        <time>2021-07-04T07:20:56Z</time>
      </trkpt>
      <trkpt lat="43.40474" lon="-0.51442">
        <ele>248.64</ele>
        <time>2021-07-04T07:21:08Z</time>
      </trkpt>
      <trkpt lat="43.40494" lon="-0.51464">
        <ele>248.16</ele>
        <time>2021-07-04T07:21:19Z</time>
      </trkpt>
      <trkpt lat="43.40515" lon="-0.51502">
        <ele>244.79</ele>
        <time>2021-07-04T07:21:33Z</time>
      </trkpt>
      <trkpt lat="43.40521" lon="-0.51517">
        <ele>243.35</ele>
        <time>2021-07-04T07:21:38Z</time>
      </trkpt>
      <trkpt lat="43.40523" lon="-0.51519">
        <ele>243.35</ele>
        <time>2021-07-04T07:21:39Z</time>
      </trkpt>
      <trkpt lat="43.40525" lon="-0.51522">
        <ele>242.87</ele>
        <time>2021-07-04T07:21:40Z</time>
      </trkpt>
      <trkpt lat="43.40528" lon="-0.51526">
        <ele>242.39</ele>
        <time>2021-07-04T07:21:41Z</time>
      </trkpt>
      <trkpt lat="43.40529" lon="-0.51531">
        <ele>242.39</ele>
        <time>2021-07-04T07:21:42Z</time>
      </trkpt>
      <trkpt lat="43.40551" lon="-0.51571">
        <ele>238.06</ele>
        <time>2021-07-04T07:21:55Z</time>
      </trkpt>
      <trkpt lat="43.40574" lon="-0.51605">
        <ele>236.14</ele>
        <time>2021-07-04T07:22:10Z</time>
      </trkpt>
      <trkpt lat="43.40622" lon="-0.51627">
        <ele>234.22</ele>
        <time>2021-07-04T07:22:22Z</time>
      </trkpt>
      <trkpt lat="43.40673" lon="-0.5165">
        <ele>231.33</ele>
        <time>2021-07-04T07:22:32Z</time>
      </trkpt>
      <trkpt lat="43.40679" lon="-0.51652">
        <ele>230.37</ele>
        <time>2021-07-04T07:22:33Z</time>
      </trkpt>
      <trkpt lat="43.4075" lon="-0.5167">
        <ele>223.64</ele>
        <time>2021-07-04T07:22:44Z</time>
      </trkpt>
      <trkpt lat="43.40756" lon="-0.51669">
        <ele>222.68</ele>
        <time>2021-07-04T07:22:45Z</time>
      </trkpt>
      <trkpt lat="43.4076" lon="-0.51667">
        <ele>222.2</ele>
        <time>2021-07-04T07:22:46Z</time>
      </trkpt>
      <trkpt lat="43.40764" lon="-0.51662">
        <ele>221.24</ele>
        <time>2021-07-04T07:22:47Z</time>
      </trkpt>
      <trkpt lat="43.40768" lon="-0.51656">
        <ele>220.76</ele>
        <time>2021-07-04T07:22:48Z</time>
      </trkpt>
      <trkpt lat="43.40771" lon="-0.51649">
        <ele>219.8</ele>
        <time>2021-07-04T07:22:49Z</time>
      </trkpt>
      <trkpt lat="43.40774" lon="-0.51643">
        <ele>219.32</ele>
        <time>2021-07-04T07:22:50Z</time>
      </trkpt>
      <trkpt lat="43.40778" lon="-0.51636">
        <ele>218.84</ele>
        <time>2021-07-04T07:22:51Z</time>
      </trkpt>
      <trkpt lat="43.40782" lon="-0.5163">
        <ele>217.88</ele>
        <time>2021-07-04T07:22:52Z</time>
      </trkpt>
      <trkpt lat="43.40787" lon="-0.51625">
        <ele>217.4</ele>
        <time>2021-07-04T07:22:53Z</time>
      </trkpt>
      <trkpt lat="43.408" lon="-0.51611">
        <ele>214.99</ele>
        <time>2021-07-04T07:22:56Z</time>
      </trkpt>
      <trkpt lat="43.40807" lon="-0.51602">
        <ele>213.07</ele>
        <time>2021-07-04T07:22:58Z</time>
      </trkpt>
      <trkpt lat="43.40811" lon="-0.51591">
        <ele>211.63</ele>
        <time>2021-07-04T07:23:00Z</time>
      </trkpt>
      <trkpt lat="43.40812" lon="-0.51584">
        <ele>210.67</ele>
        <time>2021-07-04T07:23:01Z</time>
      </trkpt>
      <trkpt lat="43.40813" lon="-0.51578">
        <ele>209.7</ele>
        <time>2021-07-04T07:23:02Z</time>
      </trkpt>
      <trkpt lat="43.40812" lon="-0.51571">
        <ele>209.22</ele>
        <time>2021-07-04T07:23:03Z</time>
      </trkpt>
      <trkpt lat="43.4081" lon="-0.51565">
        <ele>208.74</ele>
        <time>2021-07-04T07:23:04Z</time>
      </trkpt>
      <trkpt lat="43.40808" lon="-0.51559">
        <ele>207.78</ele>
        <time>2021-07-04T07:23:05Z</time>
      </trkpt>
      <trkpt lat="43.40805" lon="-0.51554">
        <ele>207.3</ele>
        <time>2021-07-04T07:23:06Z</time>
      </trkpt>
      <trkpt lat="43.40803" lon="-0.51544">
        <ele>206.34</ele>
        <time>2021-07-04T07:23:08Z</time>
      </trkpt>
      <trkpt lat="43.40804" lon="-0.51541">
        <ele>205.86</ele>
        <time>2021-07-04T07:23:09Z</time>
      </trkpt>
      <trkpt lat="43.40811" lon="-0.51534">
        <ele>203.94</ele>
        <time>2021-07-04T07:23:13Z</time>
      </trkpt>
      <trkpt lat="43.40812" lon="-0.51531">
        <ele>202.98</ele>
        <time>2021-07-04T07:23:15Z</time>
      </trkpt>
      <trkpt lat="43.40801" lon="-0.51514">
        <ele>202.49</ele>
        <time>2021-07-04T07:23:20Z</time>
      </trkpt>
      <trkpt lat="43.40793" lon="-0.51498">
        <ele>202.01</ele>
        <time>2021-07-04T07:23:23Z</time>
      </trkpt>
      <trkpt lat="43.40784" lon="-0.51474">
        <ele>200.57</ele>
        <time>2021-07-04T07:23:27Z</time>
      </trkpt>
      <trkpt lat="43.4078" lon="-0.51452">
        <ele>199.13</ele>
        <time>2021-07-04T07:23:31Z</time>
      </trkpt>
      <trkpt lat="43.40773" lon="-0.51421">
        <ele>197.69</ele>
        <time>2021-07-04T07:23:38Z</time>
      </trkpt>
      <trkpt lat="43.4075" lon="-0.51378">
        <ele>198.65</ele>
        <time>2021-07-04T07:23:51Z</time>
      </trkpt>
      <trkpt lat="43.40736" lon="-0.51345">
        <ele>198.17</ele>
        <time>2021-07-04T07:24:04Z</time>
      </trkpt>
      <trkpt lat="43.40737" lon="-0.51334">
        <ele>197.21</ele>
        <time>2021-07-04T07:24:07Z</time>
      </trkpt>
      <trkpt lat="43.40738" lon="-0.51331">
        <ele>196.73</ele>
        <time>2021-07-04T07:24:08Z</time>
      </trkpt>
      <trkpt lat="43.40739" lon="-0.51328">
        <ele>196.73</ele>
        <time>2021-07-04T07:24:09Z</time>
      </trkpt>
      <trkpt lat="43.40755" lon="-0.51295">
        <ele>198.17</ele>
        <time>2021-07-04T07:24:23Z</time>
      </trkpt>
      <trkpt lat="43.40757" lon="-0.5129">
        <ele>199.13</ele>
        <time>2021-07-04T07:24:25Z</time>
      </trkpt>
      <trkpt lat="43.40758" lon="-0.51288">
        <ele>199.13</ele>
        <time>2021-07-04T07:24:26Z</time>
      </trkpt>
      <trkpt lat="43.4076" lon="-0.51286">
        <ele>199.61</ele>
        <time>2021-07-04T07:24:27Z</time>
      </trkpt>
      <trkpt lat="43.40761" lon="-0.51284">
        <ele>199.61</ele>
        <time>2021-07-04T07:24:28Z</time>
      </trkpt>
      <trkpt lat="43.40762" lon="-0.51281">
        <ele>200.09</ele>
        <time>2021-07-04T07:24:29Z</time>
      </trkpt>
      <trkpt lat="43.40764" lon="-0.51279">
        <ele>199.61</ele>
        <time>2021-07-04T07:24:30Z</time>
      </trkpt>
      <trkpt lat="43.40765" lon="-0.51277">
        <ele>200.09</ele>
        <time>2021-07-04T07:24:31Z</time>
      </trkpt>
      <trkpt lat="43.40767" lon="-0.51276">
        <ele>200.09</ele>
        <time>2021-07-04T07:24:32Z</time>
      </trkpt>
      <trkpt lat="43.40768" lon="-0.51273">
        <ele>200.09</ele>
        <time>2021-07-04T07:24:33Z</time>
      </trkpt>
      <trkpt lat="43.40768" lon="-0.51271">
        <ele>199.61</ele>
        <time>2021-07-04T07:24:34Z</time>
      </trkpt>
      <trkpt lat="43.40769" lon="-0.51268">
        <ele>199.61</ele>
        <time>2021-07-04T07:24:35Z</time>
      </trkpt>
      <trkpt lat="43.4079" lon="-0.5123">
        <ele>199.13</ele>
        <time>2021-07-04T07:24:49Z</time>
      </trkpt>
      <trkpt lat="43.40803" lon="-0.51195">
        <ele>200.09</ele>
        <time>2021-07-04T07:25:00Z</time>
      </trkpt>
      <trkpt lat="43.40822" lon="-0.51157">
        <ele>202.01</ele>
        <time>2021-07-04T07:25:11Z</time>
      </trkpt>
      <trkpt lat="43.40835" lon="-0.51103">
        <ele>202.49</ele>
        <time>2021-07-04T07:25:25Z</time>
      </trkpt>
      <trkpt lat="43.4084" lon="-0.51066">
        <ele>201.53</ele>
        <time>2021-07-04T07:25:35Z</time>
      </trkpt>
      <trkpt lat="43.40841" lon="-0.51064">
        <ele>202.01</ele>
        <time>2021-07-04T07:25:36Z</time>
      </trkpt>
      <trkpt lat="43.40843" lon="-0.51064">
        <ele>202.01</ele>
        <time>2021-07-04T07:25:37Z</time>
      </trkpt>
      <trkpt lat="43.40845" lon="-0.51065">
        <ele>202.49</ele>
        <time>2021-07-04T07:25:38Z</time>
      </trkpt>
      <trkpt lat="43.40846" lon="-0.51066">
        <ele>202.49</ele>
        <time>2021-07-04T07:25:39Z</time>
      </trkpt>
      <trkpt lat="43.40848" lon="-0.51068">
        <ele>202.49</ele>
        <time>2021-07-04T07:25:40Z</time>
      </trkpt>
      <trkpt lat="43.40869" lon="-0.51095">
        <ele>206.34</ele>
        <time>2021-07-04T07:25:53Z</time>
      </trkpt>
      <trkpt lat="43.40878" lon="-0.51111">
        <ele>207.78</ele>
        <time>2021-07-04T07:26:00Z</time>
      </trkpt>
      <trkpt lat="43.40879" lon="-0.51114">
        <ele>207.78</ele>
        <time>2021-07-04T07:26:01Z</time>
      </trkpt>
      <trkpt lat="43.40896" lon="-0.51156">
        <ele>211.15</ele>
        <time>2021-07-04T07:26:13Z</time>
      </trkpt>
      <trkpt lat="43.40906" lon="-0.51202">
        <ele>215.95</ele>
        <time>2021-07-04T07:26:23Z</time>
      </trkpt>
      <trkpt lat="43.40914" lon="-0.51246">
        <ele>216.43</ele>
        <time>2021-07-04T07:26:34Z</time>
      </trkpt>
      <trkpt lat="43.40927" lon="-0.51313">
        <ele>216.43</ele>
        <time>2021-07-04T07:26:49Z</time>
      </trkpt>
      <trkpt lat="43.40951" lon="-0.51384">
        <ele>213.55</ele>
        <time>2021-07-04T07:27:04Z</time>
      </trkpt>
      <trkpt lat="43.4096" lon="-0.51403">
        <ele>213.07</ele>
        <time>2021-07-04T07:27:08Z</time>
      </trkpt>
      <trkpt lat="43.40969" lon="-0.51425">
        <ele>212.59</ele>
        <time>2021-07-04T07:27:12Z</time>
      </trkpt>
      <trkpt lat="43.40984" lon="-0.51479">
        <ele>212.11</ele>
        <time>2021-07-04T07:27:24Z</time>
      </trkpt>
      <trkpt lat="43.40997" lon="-0.51532">
        <ele>211.63</ele>
        <time>2021-07-04T07:27:36Z</time>
      </trkpt>
      <trkpt lat="43.40999" lon="-0.51538">
        <ele>211.15</ele>
        <time>2021-07-04T07:27:37Z</time>
      </trkpt>
      <trkpt lat="43.41002" lon="-0.51542">
        <ele>210.67</ele>
        <time>2021-07-04T07:27:38Z</time>
      </trkpt>
      <trkpt lat="43.41021" lon="-0.51573">
        <ele>209.22</ele>
        <time>2021-07-04T07:27:47Z</time>
      </trkpt>
      <trkpt lat="43.4104" lon="-0.51627">
        <ele>207.78</ele>
        <time>2021-07-04T07:28:00Z</time>
      </trkpt>
      <trkpt lat="43.41056" lon="-0.51675">
        <ele>208.26</ele>
        <time>2021-07-04T07:28:11Z</time>
      </trkpt>
      <trkpt lat="43.41075" lon="-0.5173">
        <ele>209.22</ele>
        <time>2021-07-04T07:28:23Z</time>
      </trkpt>
      <trkpt lat="43.41076" lon="-0.51744">
        <ele>207.3</ele>
        <time>2021-07-04T07:28:31Z</time>
      </trkpt>
      <trkpt lat="43.4108" lon="-0.51749">
        <ele>203.94</ele>
        <time>2021-07-04T07:29:01Z</time>
      </trkpt>
      <trkpt lat="43.4108" lon="-0.5175">
        <ele>202.01</ele>
        <time>2021-07-04T07:29:22Z</time>
      </trkpt>
      <trkpt lat="43.41081" lon="-0.5175">
        <ele>201.05</ele>
        <time>2021-07-04T07:29:26Z</time>
      </trkpt>
      <trkpt lat="43.41082" lon="-0.51752">
        <ele>200.57</ele>
        <time>2021-07-04T07:29:27Z</time>
      </trkpt>
      <trkpt lat="43.41082" lon="-0.51755">
        <ele>200.57</ele>
        <time>2021-07-04T07:29:28Z</time>
      </trkpt>
      <trkpt lat="43.41083" lon="-0.51758">
        <ele>200.09</ele>
        <time>2021-07-04T07:29:29Z</time>
      </trkpt>
      <trkpt lat="43.41084" lon="-0.51761">
        <ele>199.61</ele>
        <time>2021-07-04T07:29:30Z</time>
      </trkpt>
      <trkpt lat="43.41085" lon="-0.51765">
        <ele>199.61</ele>
        <time>2021-07-04T07:29:31Z</time>
      </trkpt>
      <trkpt lat="43.41086" lon="-0.51769">
        <ele>199.13</ele>
        <time>2021-07-04T07:29:32Z</time>
      </trkpt>
      <trkpt lat="43.41087" lon="-0.51774">
        <ele>199.13</ele>
        <time>2021-07-04T07:29:33Z</time>
      </trkpt>
      <trkpt lat="43.41108" lon="-0.51868">
        <ele>196.73</ele>
        <time>2021-07-04T07:29:49Z</time>
      </trkpt>
      <trkpt lat="43.41142" lon="-0.5195">
        <ele>191.92</ele>
        <time>2021-07-04T07:30:04Z</time>
      </trkpt>
      <trkpt lat="43.41202" lon="-0.52037">
        <ele>191.44</ele>
        <time>2021-07-04T07:30:24Z</time>
      </trkpt>
      <trkpt lat="43.41205" lon="-0.52039">
        <ele>191.44</ele>
        <time>2021-07-04T07:30:25Z</time>
      </trkpt>
      <trkpt lat="43.41229" lon="-0.52054">
        <ele>191.92</ele>
        <time>2021-07-04T07:30:33Z</time>
      </trkpt>
      <trkpt lat="43.41231" lon="-0.52057">
        <ele>191.44</ele>
        <time>2021-07-04T07:30:34Z</time>
      </trkpt>
      <trkpt lat="43.41233" lon="-0.52062">
        <ele>191.44</ele>
        <time>2021-07-04T07:30:35Z</time>
      </trkpt>
      <trkpt lat="43.41234" lon="-0.52066">
        <ele>190.96</ele>
        <time>2021-07-04T07:30:36Z</time>
      </trkpt>
      <trkpt lat="43.41234" lon="-0.52071">
        <ele>190.48</ele>
        <time>2021-07-04T07:30:37Z</time>
      </trkpt>
      <trkpt lat="43.41235" lon="-0.52077">
        <ele>190</ele>
        <time>2021-07-04T07:30:38Z</time>
      </trkpt>
      <trkpt lat="43.41247" lon="-0.52135">
        <ele>188.08</ele>
        <time>2021-07-04T07:30:49Z</time>
      </trkpt>
      <trkpt lat="43.41289" lon="-0.52201">
        <ele>188.08</ele>
        <time>2021-07-04T07:31:05Z</time>
      </trkpt>
      <trkpt lat="43.41337" lon="-0.52266">
        <ele>185.19</ele>
        <time>2021-07-04T07:31:21Z</time>
      </trkpt>
      <trkpt lat="43.41377" lon="-0.52288">
        <ele>186.63</ele>
        <time>2021-07-04T07:31:35Z</time>
      </trkpt>
      <trkpt lat="43.41422" lon="-0.52287">
        <ele>190.48</ele>
        <time>2021-07-04T07:31:51Z</time>
      </trkpt>
      <trkpt lat="43.41445" lon="-0.5228">
        <ele>191.44</ele>
        <time>2021-07-04T07:32:00Z</time>
      </trkpt>
      <trkpt lat="43.41448" lon="-0.52281">
        <ele>191.44</ele>
        <time>2021-07-04T07:32:01Z</time>
      </trkpt>
      <trkpt lat="43.41451" lon="-0.52282">
        <ele>190.96</ele>
        <time>2021-07-04T07:32:02Z</time>
      </trkpt>
      <trkpt lat="43.41452" lon="-0.52284">
        <ele>190.96</ele>
        <time>2021-07-04T07:32:03Z</time>
      </trkpt>
      <trkpt lat="43.41454" lon="-0.52286">
        <ele>190.96</ele>
        <time>2021-07-04T07:32:04Z</time>
      </trkpt>
      <trkpt lat="43.41455" lon="-0.52289">
        <ele>190.96</ele>
        <time>2021-07-04T07:32:05Z</time>
      </trkpt>
      <trkpt lat="43.41457" lon="-0.52292">
        <ele>190.96</ele>
        <time>2021-07-04T07:32:06Z</time>
      </trkpt>
      <trkpt lat="43.41478" lon="-0.5235">
        <ele>191.92</ele>
        <time>2021-07-04T07:32:20Z</time>
      </trkpt>
      <trkpt lat="43.41504" lon="-0.52412">
        <ele>194.32</ele>
        <time>2021-07-04T07:32:35Z</time>
      </trkpt>
      <trkpt lat="43.41527" lon="-0.5248">
        <ele>196.25</ele>
        <time>2021-07-04T07:32:49Z</time>
      </trkpt>
      <trkpt lat="43.4153" lon="-0.52486">
        <ele>196.25</ele>
        <time>2021-07-04T07:32:50Z</time>
      </trkpt>
      <trkpt lat="43.41532" lon="-0.52492">
        <ele>196.25</ele>
        <time>2021-07-04T07:32:51Z</time>
      </trkpt>
      <trkpt lat="43.41534" lon="-0.52499">
        <ele>196.73</ele>
        <time>2021-07-04T07:32:52Z</time>
      </trkpt>
      <trkpt lat="43.41536" lon="-0.52506">
        <ele>196.73</ele>
        <time>2021-07-04T07:32:53Z</time>
      </trkpt>
      <trkpt lat="43.41537" lon="-0.52514">
        <ele>196.73</ele>
        <time>2021-07-04T07:32:54Z</time>
      </trkpt>
      <trkpt lat="43.41538" lon="-0.52521">
        <ele>196.73</ele>
        <time>2021-07-04T07:32:55Z</time>
      </trkpt>
      <trkpt lat="43.4154" lon="-0.52535">
        <ele>196.25</ele>
        <time>2021-07-04T07:32:57Z</time>
      </trkpt>
      <trkpt lat="43.41542" lon="-0.52547">
        <ele>195.77</ele>
        <time>2021-07-04T07:32:59Z</time>
      </trkpt>
      <trkpt lat="43.41541" lon="-0.52573">
        <ele>193.84</ele>
        <time>2021-07-04T07:33:03Z</time>
      </trkpt>
      <trkpt lat="43.41541" lon="-0.52584">
        <ele>193.36</ele>
        <time>2021-07-04T07:33:04Z</time>
      </trkpt>
      <trkpt lat="43.41541" lon="-0.52597">
        <ele>191.92</ele>
        <time>2021-07-04T07:33:05Z</time>
      </trkpt>
      <trkpt lat="43.41544" lon="-0.52618">
        <ele>190</ele>
        <time>2021-07-04T07:33:07Z</time>
      </trkpt>
      <trkpt lat="43.41545" lon="-0.52627">
        <ele>189.04</ele>
        <time>2021-07-04T07:33:08Z</time>
      </trkpt>
      <trkpt lat="43.41547" lon="-0.52636">
        <ele>188.08</ele>
        <time>2021-07-04T07:33:09Z</time>
      </trkpt>
      <trkpt lat="43.41549" lon="-0.52643">
        <ele>187.59</ele>
        <time>2021-07-04T07:33:10Z</time>
      </trkpt>
      <trkpt lat="43.41551" lon="-0.52649">
        <ele>186.63</ele>
        <time>2021-07-04T07:33:11Z</time>
      </trkpt>
      <trkpt lat="43.41554" lon="-0.52655">
        <ele>185.67</ele>
        <time>2021-07-04T07:33:12Z</time>
      </trkpt>
      <trkpt lat="43.41555" lon="-0.5266">
        <ele>184.71</ele>
        <time>2021-07-04T07:33:13Z</time>
      </trkpt>
      <trkpt lat="43.41557" lon="-0.52663">
        <ele>183.75</ele>
        <time>2021-07-04T07:33:14Z</time>
      </trkpt>
      <trkpt lat="43.41558" lon="-0.52668">
        <ele>177.02</ele>
        <time>2021-07-04T07:33:23Z</time>
      </trkpt>
      <trkpt lat="43.41562" lon="-0.52681">
        <ele>174.14</ele>
        <time>2021-07-04T07:33:31Z</time>
      </trkpt>
      <trkpt lat="43.41563" lon="-0.52683">
        <ele>174.14</ele>
        <time>2021-07-04T07:33:32Z</time>
      </trkpt>
      <trkpt lat="43.41565" lon="-0.52686">
        <ele>173.66</ele>
        <time>2021-07-04T07:33:33Z</time>
      </trkpt>
      <trkpt lat="43.41566" lon="-0.52689">
        <ele>173.66</ele>
        <time>2021-07-04T07:33:34Z</time>
      </trkpt>
      <trkpt lat="43.41568" lon="-0.52692">
        <ele>173.66</ele>
        <time>2021-07-04T07:33:35Z</time>
      </trkpt>
      <trkpt lat="43.41592" lon="-0.52724">
        <ele>175.1</ele>
        <time>2021-07-04T07:33:46Z</time>
      </trkpt>
      <trkpt lat="43.41613" lon="-0.52751">
        <ele>177.98</ele>
        <time>2021-07-04T07:33:56Z</time>
      </trkpt>
      <trkpt lat="43.41628" lon="-0.52761">
        <ele>184.23</ele>
        <time>2021-07-04T07:34:08Z</time>
      </trkpt>
      <trkpt lat="43.4163" lon="-0.52762">
        <ele>184.71</ele>
        <time>2021-07-04T07:34:09Z</time>
      </trkpt>
      <trkpt lat="43.41631" lon="-0.52762">
        <ele>184.71</ele>
        <time>2021-07-04T07:34:10Z</time>
      </trkpt>
      <trkpt lat="43.41649" lon="-0.52766">
        <ele>189.52</ele>
        <time>2021-07-04T07:34:22Z</time>
      </trkpt>
      <trkpt lat="43.41664" lon="-0.52769">
        <ele>193.36</ele>
        <time>2021-07-04T07:34:32Z</time>
      </trkpt>
      <trkpt lat="43.41682" lon="-0.5278">
        <ele>202.01</ele>
        <time>2021-07-04T07:34:44Z</time>
      </trkpt>
      <trkpt lat="43.41694" lon="-0.52788">
        <ele>210.19</ele>
        <time>2021-07-04T07:34:56Z</time>
      </trkpt>
      <trkpt lat="43.41713" lon="-0.528">
        <ele>214.03</ele>
        <time>2021-07-04T07:35:10Z</time>
      </trkpt>
      <trkpt lat="43.41727" lon="-0.52809">
        <ele>212.11</ele>
        <time>2021-07-04T07:35:22Z</time>
      </trkpt>
      <trkpt lat="43.41736" lon="-0.52815">
        <ele>211.15</ele>
        <time>2021-07-04T07:35:28Z</time>
      </trkpt>
      <trkpt lat="43.41745" lon="-0.52824">
        <ele>210.67</ele>
        <time>2021-07-04T07:35:36Z</time>
      </trkpt>
      <trkpt lat="43.41761" lon="-0.52835">
        <ele>215.95</ele>
        <time>2021-07-04T07:35:50Z</time>
      </trkpt>
      <trkpt lat="43.41778" lon="-0.52839">
        <ele>219.8</ele>
        <time>2021-07-04T07:36:03Z</time>
      </trkpt>
      <trkpt lat="43.41787" lon="-0.52835">
        <ele>220.28</ele>
        <time>2021-07-04T07:36:09Z</time>
      </trkpt>
      <trkpt lat="43.41791" lon="-0.52836">
        <ele>218.84</ele>
        <time>2021-07-04T07:36:10Z</time>
      </trkpt>
      <trkpt lat="43.41795" lon="-0.52834">
        <ele>218.84</ele>
        <time>2021-07-04T07:36:11Z</time>
      </trkpt>
      <trkpt lat="43.4184" lon="-0.52815">
        <ele>209.22</ele>
        <time>2021-07-04T07:36:25Z</time>
      </trkpt>
      <trkpt lat="43.41876" lon="-0.52767">
        <ele>208.26</ele>
        <time>2021-07-04T07:36:38Z</time>
      </trkpt>
      <trkpt lat="43.41879" lon="-0.5276">
        <ele>208.26</ele>
        <time>2021-07-04T07:36:39Z</time>
      </trkpt>
      <trkpt lat="43.41895" lon="-0.52725">
        <ele>207.3</ele>
        <time>2021-07-04T07:36:48Z</time>
      </trkpt>
      <trkpt lat="43.41903" lon="-0.52718">
        <ele>207.3</ele>
        <time>2021-07-04T07:36:53Z</time>
      </trkpt>
      <trkpt lat="43.41905" lon="-0.52719">
        <ele>207.3</ele>
        <time>2021-07-04T07:36:54Z</time>
      </trkpt>
      <trkpt lat="43.41907" lon="-0.52719">
        <ele>206.82</ele>
        <time>2021-07-04T07:36:55Z</time>
      </trkpt>
      <trkpt lat="43.4191" lon="-0.52718">
        <ele>206.82</ele>
        <time>2021-07-04T07:36:56Z</time>
      </trkpt>
      <trkpt lat="43.41912" lon="-0.52717">
        <ele>206.34</ele>
        <time>2021-07-04T07:36:57Z</time>
      </trkpt>
      <trkpt lat="43.41915" lon="-0.52716">
        <ele>206.34</ele>
        <time>2021-07-04T07:36:58Z</time>
      </trkpt>
      <trkpt lat="43.41918" lon="-0.52714">
        <ele>205.86</ele>
        <time>2021-07-04T07:36:59Z</time>
      </trkpt>
      <trkpt lat="43.41946" lon="-0.52679">
        <ele>202.49</ele>
        <time>2021-07-04T07:37:09Z</time>
      </trkpt>
      <trkpt lat="43.41963" lon="-0.52663">
        <ele>197.21</ele>
        <time>2021-07-04T07:37:20Z</time>
      </trkpt>
      <trkpt lat="43.41981" lon="-0.52647">
        <ele>189.52</ele>
        <time>2021-07-04T07:37:33Z</time>
      </trkpt>
      <trkpt lat="43.42002" lon="-0.52623">
        <ele>189.52</ele>
        <time>2021-07-04T07:37:48Z</time>
      </trkpt>
      <trkpt lat="43.4202" lon="-0.52605">
        <ele>189.52</ele>
        <time>2021-07-04T07:38:02Z</time>
      </trkpt>
      <trkpt lat="43.42036" lon="-0.5258">
        <ele>189.04</ele>
        <time>2021-07-04T07:38:19Z</time>
      </trkpt>
      <trkpt lat="43.42056" lon="-0.52556">
        <ele>190.96</ele>
        <time>2021-07-04T07:38:36Z</time>
      </trkpt>
      <trkpt lat="43.42078" lon="-0.52536">
        <ele>194.32</ele>
        <time>2021-07-04T07:38:55Z</time>
      </trkpt>
      <trkpt lat="43.42102" lon="-0.5252">
        <ele>199.13</ele>
        <time>2021-07-04T07:39:15Z</time>
      </trkpt>
      <trkpt lat="43.42119" lon="-0.5251">
        <ele>202.98</ele>
        <time>2021-07-04T07:39:30Z</time>
      </trkpt>
      <trkpt lat="43.42137" lon="-0.52497">
        <ele>207.78</ele>
        <time>2021-07-04T07:39:47Z</time>
      </trkpt>
      <trkpt lat="43.42158" lon="-0.52488">
        <ele>213.07</ele>
        <time>2021-07-04T07:40:06Z</time>
      </trkpt>
      <trkpt lat="43.42179" lon="-0.52481">
        <ele>219.32</ele>
        <time>2021-07-04T07:40:24Z</time>
      </trkpt>
      <trkpt lat="43.42195" lon="-0.52471">
        <ele>222.68</ele>
        <time>2021-07-04T07:40:38Z</time>
      </trkpt>
      <trkpt lat="43.42212" lon="-0.52453">
        <ele>224.61</ele>
        <time>2021-07-04T07:40:54Z</time>
      </trkpt>
      <trkpt lat="43.42229" lon="-0.52433">
        <ele>227.01</ele>
        <time>2021-07-04T07:41:11Z</time>
      </trkpt>
      <trkpt lat="43.42246" lon="-0.52419">
        <ele>228.93</ele>
        <time>2021-07-04T07:41:27Z</time>
      </trkpt>
      <trkpt lat="43.42266" lon="-0.52408">
        <ele>232.3</ele>
        <time>2021-07-04T07:41:43Z</time>
      </trkpt>
      <trkpt lat="43.42286" lon="-0.52398">
        <ele>236.14</ele>
        <time>2021-07-04T07:42:00Z</time>
      </trkpt>
      <trkpt lat="43.42288" lon="-0.52398">
        <ele>236.62</ele>
        <time>2021-07-04T07:42:02Z</time>
      </trkpt>
      <trkpt lat="43.4229" lon="-0.52397">
        <ele>236.62</ele>
        <time>2021-07-04T07:42:03Z</time>
      </trkpt>
      <trkpt lat="43.42304" lon="-0.52391">
        <ele>239.51</ele>
        <time>2021-07-04T07:42:18Z</time>
      </trkpt>
      <trkpt lat="43.42318" lon="-0.52385">
        <ele>243.83</ele>
        <time>2021-07-04T07:42:31Z</time>
      </trkpt>
      <trkpt lat="43.42335" lon="-0.52382">
        <ele>251.04</ele>
        <time>2021-07-04T07:42:45Z</time>
      </trkpt>
      <trkpt lat="43.42355" lon="-0.52375">
        <ele>256.81</ele>
        <time>2021-07-04T07:43:00Z</time>
      </trkpt>
      <trkpt lat="43.42374" lon="-0.52362">
        <ele>259.21</ele>
        <time>2021-07-04T07:43:16Z</time>
      </trkpt>
      <trkpt lat="43.42392" lon="-0.52348">
        <ele>258.73</ele>
        <time>2021-07-04T07:43:30Z</time>
      </trkpt>
      <trkpt lat="43.4241" lon="-0.52328">
        <ele>253.93</ele>
        <time>2021-07-04T07:43:45Z</time>
      </trkpt>
      <trkpt lat="43.42429" lon="-0.52314">
        <ele>255.37</ele>
        <time>2021-07-04T07:43:55Z</time>
      </trkpt>
      <trkpt lat="43.42431" lon="-0.52314">
        <ele>255.37</ele>
        <time>2021-07-04T07:43:56Z</time>
      </trkpt>
      <trkpt lat="43.42433" lon="-0.52314">
        <ele>255.85</ele>
        <time>2021-07-04T07:43:57Z</time>
      </trkpt>
      <trkpt lat="43.42434" lon="-0.52315">
        <ele>255.37</ele>
        <time>2021-07-04T07:43:58Z</time>
      </trkpt>
      <trkpt lat="43.42435" lon="-0.52317">
        <ele>255.37</ele>
        <time>2021-07-04T07:43:59Z</time>
      </trkpt>
      <trkpt lat="43.42436" lon="-0.52318">
        <ele>255.37</ele>
        <time>2021-07-04T07:44:00Z</time>
      </trkpt>
      <trkpt lat="43.42442" lon="-0.52332">
        <ele>255.85</ele>
        <time>2021-07-04T07:44:06Z</time>
      </trkpt>
      <trkpt lat="43.42442" lon="-0.52335">
        <ele>255.85</ele>
        <time>2021-07-04T07:44:07Z</time>
      </trkpt>
      <trkpt lat="43.42443" lon="-0.52338">
        <ele>255.85</ele>
        <time>2021-07-04T07:44:08Z</time>
      </trkpt>
      <trkpt lat="43.42444" lon="-0.52341">
        <ele>255.37</ele>
        <time>2021-07-04T07:44:09Z</time>
      </trkpt>
      <trkpt lat="43.42445" lon="-0.52344">
        <ele>255.37</ele>
        <time>2021-07-04T07:44:10Z</time>
      </trkpt>
      <trkpt lat="43.42468" lon="-0.52399">
        <ele>252</ele>
        <time>2021-07-04T07:44:25Z</time>
      </trkpt>
      <trkpt lat="43.42502" lon="-0.52485">
        <ele>250.56</ele>
        <time>2021-07-04T07:44:43Z</time>
      </trkpt>
      <trkpt lat="43.42534" lon="-0.52513">
        <ele>251.52</ele>
        <time>2021-07-04T07:44:56Z</time>
      </trkpt>
      <trkpt lat="43.42586" lon="-0.5249">
        <ele>252.96</ele>
        <time>2021-07-04T07:45:12Z</time>
      </trkpt>
      <trkpt lat="43.4262" lon="-0.52511">
        <ele>252</ele>
        <time>2021-07-04T07:45:22Z</time>
      </trkpt>
      <trkpt lat="43.42674" lon="-0.52575">
        <ele>251.52</ele>
        <time>2021-07-04T07:45:40Z</time>
      </trkpt>
      <trkpt lat="43.42721" lon="-0.52644">
        <ele>251.52</ele>
        <time>2021-07-04T07:45:57Z</time>
      </trkpt>
      <trkpt lat="43.42724" lon="-0.52647">
        <ele>251.52</ele>
        <time>2021-07-04T07:45:58Z</time>
      </trkpt>
      <trkpt lat="43.42786" lon="-0.52703">
        <ele>251.04</ele>
        <time>2021-07-04T07:46:15Z</time>
      </trkpt>
      <trkpt lat="43.4279" lon="-0.52706">
        <ele>251.04</ele>
        <time>2021-07-04T07:46:16Z</time>
      </trkpt>
      <trkpt lat="43.42794" lon="-0.52709">
        <ele>251.04</ele>
        <time>2021-07-04T07:46:17Z</time>
      </trkpt>
      <trkpt lat="43.42806" lon="-0.52718">
        <ele>250.56</ele>
        <time>2021-07-04T07:46:20Z</time>
      </trkpt>
      <trkpt lat="43.4281" lon="-0.52721">
        <ele>250.56</ele>
        <time>2021-07-04T07:46:21Z</time>
      </trkpt>
      <trkpt lat="43.42847" lon="-0.52739">
        <ele>250.56</ele>
        <time>2021-07-04T07:46:31Z</time>
      </trkpt>
      <trkpt lat="43.42849" lon="-0.52736">
        <ele>250.56</ele>
        <time>2021-07-04T07:46:32Z</time>
      </trkpt>
      <trkpt lat="43.42871" lon="-0.52675">
        <ele>247.2</ele>
        <time>2021-07-04T07:46:45Z</time>
      </trkpt>
      <trkpt lat="43.42874" lon="-0.52669">
        <ele>246.23</ele>
        <time>2021-07-04T07:46:46Z</time>
      </trkpt>
      <trkpt lat="43.42879" lon="-0.52664">
        <ele>245.75</ele>
        <time>2021-07-04T07:46:47Z</time>
      </trkpt>
      <trkpt lat="43.42883" lon="-0.5266">
        <ele>245.27</ele>
        <time>2021-07-04T07:46:48Z</time>
      </trkpt>
      <trkpt lat="43.42888" lon="-0.52656">
        <ele>244.31</ele>
        <time>2021-07-04T07:46:49Z</time>
      </trkpt>
      <trkpt lat="43.42894" lon="-0.52651">
        <ele>243.83</ele>
        <time>2021-07-04T07:46:50Z</time>
      </trkpt>
      <trkpt lat="43.429" lon="-0.52645">
        <ele>243.35</ele>
        <time>2021-07-04T07:46:51Z</time>
      </trkpt>
      <trkpt lat="43.4293" lon="-0.52615">
        <ele>240.47</ele>
        <time>2021-07-04T07:46:57Z</time>
      </trkpt>
      <trkpt lat="43.42933" lon="-0.52611">
        <ele>239.99</ele>
        <time>2021-07-04T07:46:58Z</time>
      </trkpt>
      <trkpt lat="43.42966" lon="-0.52581">
        <ele>237.58</ele>
        <time>2021-07-04T07:47:09Z</time>
      </trkpt>
      <trkpt lat="43.42982" lon="-0.52582">
        <ele>237.58</ele>
        <time>2021-07-04T07:47:14Z</time>
      </trkpt>
      <trkpt lat="43.4301" lon="-0.52576">
        <ele>237.58</ele>
        <time>2021-07-04T07:47:24Z</time>
      </trkpt>
      <trkpt lat="43.43029" lon="-0.52579">
        <ele>239.02</ele>
        <time>2021-07-04T07:47:30Z</time>
      </trkpt>
      <trkpt lat="43.43057" lon="-0.52578">
        <ele>243.35</ele>
        <time>2021-07-04T07:47:38Z</time>
      </trkpt>
      <trkpt lat="43.43063" lon="-0.52581">
        <ele>243.83</ele>
        <time>2021-07-04T07:47:43Z</time>
      </trkpt>
      <trkpt lat="43.43074" lon="-0.52579">
        <ele>244.31</ele>
        <time>2021-07-04T07:47:49Z</time>
      </trkpt>
      <trkpt lat="43.43104" lon="-0.52578">
        <ele>244.31</ele>
        <time>2021-07-04T07:48:00Z</time>
      </trkpt>
      <trkpt lat="43.4314" lon="-0.52579">
        <ele>244.79</ele>
        <time>2021-07-04T07:48:12Z</time>
      </trkpt>
      <trkpt lat="43.43146" lon="-0.52567">
        <ele>242.39</ele>
        <time>2021-07-04T07:48:18Z</time>
      </trkpt>
      <trkpt lat="43.43146" lon="-0.52559">
        <ele>241.43</ele>
        <time>2021-07-04T07:48:21Z</time>
      </trkpt>
      <trkpt lat="43.43147" lon="-0.52546">
        <ele>240.47</ele>
        <time>2021-07-04T07:48:27Z</time>
      </trkpt>
      <trkpt lat="43.43152" lon="-0.5254">
        <ele>238.06</ele>
        <time>2021-07-04T07:48:31Z</time>
      </trkpt>
      <trkpt lat="43.4315" lon="-0.52517">
        <ele>237.1</ele>
        <time>2021-07-04T07:48:42Z</time>
      </trkpt>
      <trkpt lat="43.43161" lon="-0.52495">
        <ele>237.58</ele>
        <time>2021-07-04T07:48:51Z</time>
      </trkpt>
      <trkpt lat="43.43167" lon="-0.52495">
        <ele>238.06</ele>
        <time>2021-07-04T07:48:54Z</time>
      </trkpt>
      <trkpt lat="43.43178" lon="-0.52454">
        <ele>214.99</ele>
        <time>2021-07-04T07:49:04Z</time>
      </trkpt>
      <trkpt lat="43.4318" lon="-0.52402">
        <ele>205.86</ele>
        <time>2021-07-04T07:49:13Z</time>
      </trkpt>
      <trkpt lat="43.43211" lon="-0.52338">
        <ele>200.09</ele>
        <time>2021-07-04T07:49:29Z</time>
      </trkpt>
      <trkpt lat="43.4326" lon="-0.523">
        <ele>196.73</ele>
        <time>2021-07-04T07:49:47Z</time>
      </trkpt>
      <trkpt lat="43.43309" lon="-0.52265">
        <ele>194.8</ele>
        <time>2021-07-04T07:50:03Z</time>
      </trkpt>
      <trkpt lat="43.43322" lon="-0.52259">
        <ele>194.8</ele>
        <time>2021-07-04T07:50:07Z</time>
      </trkpt>
      <trkpt lat="43.43336" lon="-0.5227">
        <ele>194.32</ele>
        <time>2021-07-04T07:50:13Z</time>
      </trkpt>
      <trkpt lat="43.43346" lon="-0.52286">
        <ele>194.32</ele>
        <time>2021-07-04T07:50:18Z</time>
      </trkpt>
      <trkpt lat="43.43348" lon="-0.52286">
        <ele>194.32</ele>
        <time>2021-07-04T07:50:19Z</time>
      </trkpt>
      <trkpt lat="43.43351" lon="-0.52285">
        <ele>194.32</ele>
        <time>2021-07-04T07:50:20Z</time>
      </trkpt>
      <trkpt lat="43.43381" lon="-0.5225">
        <ele>194.8</ele>
        <time>2021-07-04T07:50:33Z</time>
      </trkpt>
      <trkpt lat="43.4341" lon="-0.52214">
        <ele>198.17</ele>
        <time>2021-07-04T07:50:50Z</time>
      </trkpt>
      <trkpt lat="43.43414" lon="-0.52214">
        <ele>198.65</ele>
        <time>2021-07-04T07:50:52Z</time>
      </trkpt>
      <trkpt lat="43.43416" lon="-0.52215">
        <ele>198.65</ele>
        <time>2021-07-04T07:50:53Z</time>
      </trkpt>
      <trkpt lat="43.43418" lon="-0.52217">
        <ele>199.13</ele>
        <time>2021-07-04T07:50:54Z</time>
      </trkpt>
      <trkpt lat="43.4342" lon="-0.52219">
        <ele>199.13</ele>
        <time>2021-07-04T07:50:55Z</time>
      </trkpt>
      <trkpt lat="43.43422" lon="-0.52221">
        <ele>199.61</ele>
        <time>2021-07-04T07:50:56Z</time>
      </trkpt>
      <trkpt lat="43.43449" lon="-0.52246">
        <ele>202.98</ele>
        <time>2021-07-04T07:51:09Z</time>
      </trkpt>
      <trkpt lat="43.43481" lon="-0.52268">
        <ele>205.38</ele>
        <time>2021-07-04T07:51:23Z</time>
      </trkpt>
      <trkpt lat="43.43509" lon="-0.52293">
        <ele>210.19</ele>
        <time>2021-07-04T07:51:36Z</time>
      </trkpt>
      <trkpt lat="43.43544" lon="-0.52315">
        <ele>218.36</ele>
        <time>2021-07-04T07:51:49Z</time>
      </trkpt>
      <trkpt lat="43.43574" lon="-0.52337">
        <ele>225.09</ele>
        <time>2021-07-04T07:52:02Z</time>
      </trkpt>
      <trkpt lat="43.43608" lon="-0.52358">
        <ele>228.45</ele>
        <time>2021-07-04T07:52:15Z</time>
      </trkpt>
      <trkpt lat="43.43642" lon="-0.52375">
        <ele>227.97</ele>
        <time>2021-07-04T07:52:30Z</time>
      </trkpt>
      <trkpt lat="43.43672" lon="-0.52384">
        <ele>228.93</ele>
        <time>2021-07-04T07:52:46Z</time>
      </trkpt>
      <trkpt lat="43.43695" lon="-0.52396">
        <ele>228.93</ele>
        <time>2021-07-04T07:53:01Z</time>
      </trkpt>
      <trkpt lat="43.43722" lon="-0.52402">
        <ele>232.3</ele>
        <time>2021-07-04T07:53:17Z</time>
      </trkpt>
      <trkpt lat="43.43748" lon="-0.52428">
        <ele>232.3</ele>
        <time>2021-07-04T07:53:33Z</time>
      </trkpt>
      <trkpt lat="43.4377" lon="-0.52464">
        <ele>231.33</ele>
        <time>2021-07-04T07:53:51Z</time>
      </trkpt>
      <trkpt lat="43.43787" lon="-0.52487">
        <ele>232.3</ele>
        <time>2021-07-04T07:54:05Z</time>
      </trkpt>
      <trkpt lat="43.43804" lon="-0.52516">
        <ele>234.22</ele>
        <time>2021-07-04T07:54:20Z</time>
      </trkpt>
      <trkpt lat="43.43818" lon="-0.52557">
        <ele>233.74</ele>
        <time>2021-07-04T07:54:34Z</time>
      </trkpt>
      <trkpt lat="43.43854" lon="-0.52628">
        <ele>230.85</ele>
        <time>2021-07-04T07:54:49Z</time>
      </trkpt>
      <trkpt lat="43.4386" lon="-0.52643">
        <ele>229.89</ele>
        <time>2021-07-04T07:54:51Z</time>
      </trkpt>
      <trkpt lat="43.43862" lon="-0.52651">
        <ele>228.93</ele>
        <time>2021-07-04T07:54:52Z</time>
      </trkpt>
      <trkpt lat="43.4388" lon="-0.52739">
        <ele>223.16</ele>
        <time>2021-07-04T07:55:03Z</time>
      </trkpt>
      <trkpt lat="43.43911" lon="-0.52807">
        <ele>221.24</ele>
        <time>2021-07-04T07:55:15Z</time>
      </trkpt>
      <trkpt lat="43.43918" lon="-0.52815">
        <ele>221.72</ele>
        <time>2021-07-04T07:55:17Z</time>
      </trkpt>
      <trkpt lat="43.43954" lon="-0.52848">
        <ele>223.16</ele>
        <time>2021-07-04T07:55:27Z</time>
      </trkpt>
      <trkpt lat="43.44009" lon="-0.52898">
        <ele>227.01</ele>
        <time>2021-07-04T07:55:43Z</time>
      </trkpt>
      <trkpt lat="43.44046" lon="-0.52947">
        <ele>235.18</ele>
        <time>2021-07-04T07:55:58Z</time>
      </trkpt>
      <trkpt lat="43.4408" lon="-0.53021">
        <ele>234.7</ele>
        <time>2021-07-04T07:56:16Z</time>
      </trkpt>
      <trkpt lat="43.44127" lon="-0.53109">
        <ele>231.33</ele>
        <time>2021-07-04T07:56:28Z</time>
      </trkpt>
      <trkpt lat="43.4417" lon="-0.53168">
        <ele>227.97</ele>
        <time>2021-07-04T07:56:36Z</time>
      </trkpt>
      <trkpt lat="43.44176" lon="-0.53173">
        <ele>227.97</ele>
        <time>2021-07-04T07:56:37Z</time>
      </trkpt>
      <trkpt lat="43.44182" lon="-0.53178">
        <ele>227.97</ele>
        <time>2021-07-04T07:56:38Z</time>
      </trkpt>
      <trkpt lat="43.44187" lon="-0.53183">
        <ele>227.49</ele>
        <time>2021-07-04T07:56:39Z</time>
      </trkpt>
      <trkpt lat="43.44191" lon="-0.5319">
        <ele>227.49</ele>
        <time>2021-07-04T07:56:40Z</time>
      </trkpt>
      <trkpt lat="43.44195" lon="-0.53196">
        <ele>227.01</ele>
        <time>2021-07-04T07:56:41Z</time>
      </trkpt>
      <trkpt lat="43.44206" lon="-0.53213">
        <ele>227.01</ele>
        <time>2021-07-04T07:56:44Z</time>
      </trkpt>
      <trkpt lat="43.44255" lon="-0.53283">
        <ele>227.49</ele>
        <time>2021-07-04T07:56:58Z</time>
      </trkpt>
      <trkpt lat="43.4428" lon="-0.53322">
        <ele>226.53</ele>
        <time>2021-07-04T07:57:06Z</time>
      </trkpt>
      <trkpt lat="43.44305" lon="-0.5338">
        <ele>224.61</ele>
        <time>2021-07-04T07:57:18Z</time>
      </trkpt>
      <trkpt lat="43.44337" lon="-0.53462">
        <ele>226.53</ele>
        <time>2021-07-04T07:57:32Z</time>
      </trkpt>
      <trkpt lat="43.44346" lon="-0.53503">
        <ele>225.57</ele>
        <time>2021-07-04T07:57:38Z</time>
      </trkpt>
      <trkpt lat="43.4436" lon="-0.5359">
        <ele>226.05</ele>
        <time>2021-07-04T07:57:52Z</time>
      </trkpt>
      <trkpt lat="43.44374" lon="-0.53654">
        <ele>225.57</ele>
        <time>2021-07-04T07:58:03Z</time>
      </trkpt>
      <trkpt lat="43.44376" lon="-0.53666">
        <ele>225.09</ele>
        <time>2021-07-04T07:58:05Z</time>
      </trkpt>
      <trkpt lat="43.44389" lon="-0.53727">
        <ele>228.45</ele>
        <time>2021-07-04T07:58:20Z</time>
      </trkpt>
      <trkpt lat="43.44397" lon="-0.53776">
        <ele>231.33</ele>
        <time>2021-07-04T07:58:39Z</time>
      </trkpt>
      <trkpt lat="43.44405" lon="-0.53822">
        <ele>232.78</ele>
        <time>2021-07-04T07:58:57Z</time>
      </trkpt>
      <trkpt lat="43.44416" lon="-0.53878">
        <ele>234.22</ele>
        <time>2021-07-04T07:59:15Z</time>
      </trkpt>
      <trkpt lat="43.44431" lon="-0.53957">
        <ele>232.78</ele>
        <time>2021-07-04T07:59:33Z</time>
      </trkpt>
      <trkpt lat="43.44439" lon="-0.54035">
        <ele>232.78</ele>
        <time>2021-07-04T07:59:49Z</time>
      </trkpt>
      <trkpt lat="43.44451" lon="-0.54125">
        <ele>230.37</ele>
        <time>2021-07-04T08:00:05Z</time>
      </trkpt>
      <trkpt lat="43.44473" lon="-0.54207">
        <ele>224.61</ele>
        <time>2021-07-04T08:00:15Z</time>
      </trkpt>
      <trkpt lat="43.44485" lon="-0.54241">
        <ele>221.72</ele>
        <time>2021-07-04T08:00:22Z</time>
      </trkpt>
      <trkpt lat="43.44486" lon="-0.54243">
        <ele>221.72</ele>
        <time>2021-07-04T08:00:23Z</time>
      </trkpt>
      <trkpt lat="43.44486" lon="-0.54245">
        <ele>221.24</ele>
        <time>2021-07-04T08:00:24Z</time>
      </trkpt>
      <trkpt lat="43.44486" lon="-0.54246">
        <ele>221.24</ele>
        <time>2021-07-04T08:00:25Z</time>
      </trkpt>
      <trkpt lat="43.44485" lon="-0.54248">
        <ele>221.24</ele>
        <time>2021-07-04T08:00:26Z</time>
      </trkpt>
      <trkpt lat="43.44484" lon="-0.54249">
        <ele>221.24</ele>
        <time>2021-07-04T08:00:27Z</time>
      </trkpt>
      <trkpt lat="43.44472" lon="-0.54254">
        <ele>219.8</ele>
        <time>2021-07-04T08:00:33Z</time>
      </trkpt>
      <trkpt lat="43.44459" lon="-0.54255">
        <ele>217.4</ele>
        <time>2021-07-04T08:00:42Z</time>
      </trkpt>
      <trkpt lat="43.44449" lon="-0.54278">
        <ele>214.51</ele>
        <time>2021-07-04T08:00:55Z</time>
      </trkpt>
      <trkpt lat="43.44435" lon="-0.54309">
        <ele>213.55</ele>
        <time>2021-07-04T08:01:05Z</time>
      </trkpt>
      <trkpt lat="43.44425" lon="-0.54327">
        <ele>213.07</ele>
        <time>2021-07-04T08:01:10Z</time>
      </trkpt>
      <trkpt lat="43.44423" lon="-0.54333">
        <ele>213.07</ele>
        <time>2021-07-04T08:01:11Z</time>
      </trkpt>
      <trkpt lat="43.44422" lon="-0.54338">
        <ele>213.07</ele>
        <time>2021-07-04T08:01:12Z</time>
      </trkpt>
      <trkpt lat="43.44421" lon="-0.54343">
        <ele>213.07</ele>
        <time>2021-07-04T08:01:13Z</time>
      </trkpt>
      <trkpt lat="43.4442" lon="-0.54348">
        <ele>213.07</ele>
        <time>2021-07-04T08:01:14Z</time>
      </trkpt>
      <trkpt lat="43.44414" lon="-0.5437">
        <ele>214.03</ele>
        <time>2021-07-04T08:01:22Z</time>
      </trkpt>
      <trkpt lat="43.44402" lon="-0.54394">
        <ele>211.15</ele>
        <time>2021-07-04T08:01:41Z</time>
      </trkpt>
      <trkpt lat="43.44394" lon="-0.54404">
        <ele>209.7</ele>
        <time>2021-07-04T08:01:44Z</time>
      </trkpt>
      <trkpt lat="43.4439" lon="-0.54408">
        <ele>209.22</ele>
        <time>2021-07-04T08:01:45Z</time>
      </trkpt>
      <trkpt lat="43.44386" lon="-0.54412">
        <ele>208.74</ele>
        <time>2021-07-04T08:01:46Z</time>
      </trkpt>
      <trkpt lat="43.44382" lon="-0.54418">
        <ele>208.26</ele>
        <time>2021-07-04T08:01:47Z</time>
      </trkpt>
      <trkpt lat="43.44379" lon="-0.54424">
        <ele>208.26</ele>
        <time>2021-07-04T08:01:48Z</time>
      </trkpt>
      <trkpt lat="43.44374" lon="-0.54429">
        <ele>207.78</ele>
        <time>2021-07-04T08:01:49Z</time>
      </trkpt>
      <trkpt lat="43.4437" lon="-0.54435">
        <ele>207.78</ele>
        <time>2021-07-04T08:01:50Z</time>
      </trkpt>
      <trkpt lat="43.44365" lon="-0.54441">
        <ele>205.86</ele>
        <time>2021-07-04T08:01:51Z</time>
      </trkpt>
      <trkpt lat="43.44359" lon="-0.54447">
        <ele>203.94</ele>
        <time>2021-07-04T08:01:52Z</time>
      </trkpt>
      <trkpt lat="43.44314" lon="-0.54476">
        <ele>191.92</ele>
        <time>2021-07-04T08:02:00Z</time>
      </trkpt>
      <trkpt lat="43.44299" lon="-0.54487">
        <ele>185.19</ele>
        <time>2021-07-04T08:02:06Z</time>
      </trkpt>
      <trkpt lat="43.443" lon="-0.54491">
        <ele>184.23</ele>
        <time>2021-07-04T08:02:07Z</time>
      </trkpt>
      <trkpt lat="43.44301" lon="-0.54494">
        <ele>183.75</ele>
        <time>2021-07-04T08:02:08Z</time>
      </trkpt>
      <trkpt lat="43.44315" lon="-0.54544">
        <ele>179.9</ele>
        <time>2021-07-04T08:02:20Z</time>
      </trkpt>
      <trkpt lat="43.44339" lon="-0.54596">
        <ele>177.98</ele>
        <time>2021-07-04T08:02:32Z</time>
      </trkpt>
      <trkpt lat="43.44361" lon="-0.54642">
        <ele>176.54</ele>
        <time>2021-07-04T08:02:41Z</time>
      </trkpt>
      <trkpt lat="43.44386" lon="-0.54698">
        <ele>176.06</ele>
        <time>2021-07-04T08:02:54Z</time>
      </trkpt>
      <trkpt lat="43.44421" lon="-0.54773">
        <ele>174.14</ele>
        <time>2021-07-04T08:03:09Z</time>
      </trkpt>
      <trkpt lat="43.44444" lon="-0.54826">
        <ele>172.21</ele>
        <time>2021-07-04T08:03:21Z</time>
      </trkpt>
      <trkpt lat="43.44465" lon="-0.54875">
        <ele>171.73</ele>
        <time>2021-07-04T08:03:30Z</time>
      </trkpt>
      <trkpt lat="43.44468" lon="-0.54881">
        <ele>171.25</ele>
        <time>2021-07-04T08:03:31Z</time>
      </trkpt>
      <trkpt lat="43.44491" lon="-0.54944">
        <ele>171.73</ele>
        <time>2021-07-04T08:03:44Z</time>
      </trkpt>
      <trkpt lat="43.44508" lon="-0.55014">
        <ele>172.21</ele>
        <time>2021-07-04T08:03:59Z</time>
      </trkpt>
      <trkpt lat="43.4454" lon="-0.55086">
        <ele>172.69</ele>
        <time>2021-07-04T08:04:15Z</time>
      </trkpt>
      <trkpt lat="43.44571" lon="-0.55145">
        <ele>172.21</ele>
        <time>2021-07-04T08:04:29Z</time>
      </trkpt>
      <trkpt lat="43.44598" lon="-0.55216">
        <ele>172.21</ele>
        <time>2021-07-04T08:04:44Z</time>
      </trkpt>
      <trkpt lat="43.44629" lon="-0.55257">
        <ele>172.69</ele>
        <time>2021-07-04T08:04:55Z</time>
      </trkpt>
      <trkpt lat="43.44633" lon="-0.55259">
        <ele>172.69</ele>
        <time>2021-07-04T08:04:56Z</time>
      </trkpt>
      <trkpt lat="43.44638" lon="-0.55261">
        <ele>172.69</ele>
        <time>2021-07-04T08:04:57Z</time>
      </trkpt>
      <trkpt lat="43.44642" lon="-0.5526">
        <ele>172.21</ele>
        <time>2021-07-04T08:04:58Z</time>
      </trkpt>
      <trkpt lat="43.44647" lon="-0.55258">
        <ele>172.21</ele>
        <time>2021-07-04T08:04:59Z</time>
      </trkpt>
      <trkpt lat="43.44651" lon="-0.55255">
        <ele>171.73</ele>
        <time>2021-07-04T08:05:00Z</time>
      </trkpt>
      <trkpt lat="43.44654" lon="-0.55252">
        <ele>171.73</ele>
        <time>2021-07-04T08:05:01Z</time>
      </trkpt>
      <trkpt lat="43.44657" lon="-0.55248">
        <ele>171.73</ele>
        <time>2021-07-04T08:05:02Z</time>
      </trkpt>
      <trkpt lat="43.4466" lon="-0.55247">
        <ele>171.73</ele>
        <time>2021-07-04T08:05:03Z</time>
      </trkpt>
      <trkpt lat="43.44664" lon="-0.55247">
        <ele>171.73</ele>
        <time>2021-07-04T08:05:04Z</time>
      </trkpt>
      <trkpt lat="43.44667" lon="-0.55249">
        <ele>171.73</ele>
        <time>2021-07-04T08:05:05Z</time>
      </trkpt>
      <trkpt lat="43.4467" lon="-0.55252">
        <ele>172.21</ele>
        <time>2021-07-04T08:05:06Z</time>
      </trkpt>
      <trkpt lat="43.44673" lon="-0.55256">
        <ele>172.21</ele>
        <time>2021-07-04T08:05:07Z</time>
      </trkpt>
      <trkpt lat="43.44675" lon="-0.55261">
        <ele>172.69</ele>
        <time>2021-07-04T08:05:08Z</time>
      </trkpt>
      <trkpt lat="43.44677" lon="-0.55265">
        <ele>172.69</ele>
        <time>2021-07-04T08:05:09Z</time>
      </trkpt>
      <trkpt lat="43.44679" lon="-0.5527">
        <ele>173.17</ele>
        <time>2021-07-04T08:05:10Z</time>
      </trkpt>
      <trkpt lat="43.44681" lon="-0.55274">
        <ele>173.17</ele>
        <time>2021-07-04T08:05:11Z</time>
      </trkpt>
      <trkpt lat="43.44684" lon="-0.55278">
        <ele>172.69</ele>
        <time>2021-07-04T08:05:12Z</time>
      </trkpt>
      <trkpt lat="43.44686" lon="-0.55282">
        <ele>172.69</ele>
        <time>2021-07-04T08:05:13Z</time>
      </trkpt>
      <trkpt lat="43.44713" lon="-0.55324">
        <ele>172.69</ele>
        <time>2021-07-04T08:05:24Z</time>
      </trkpt>
      <trkpt lat="43.44716" lon="-0.55328">
        <ele>173.17</ele>
        <time>2021-07-04T08:05:25Z</time>
      </trkpt>
      <trkpt lat="43.44754" lon="-0.55366">
        <ele>175.1</ele>
        <time>2021-07-04T08:05:37Z</time>
      </trkpt>
      <trkpt lat="43.4476" lon="-0.55379">
        <ele>175.58</ele>
        <time>2021-07-04T08:05:40Z</time>
      </trkpt>
      <trkpt lat="43.44759" lon="-0.55384">
        <ele>176.06</ele>
        <time>2021-07-04T08:05:41Z</time>
      </trkpt>
      <trkpt lat="43.44757" lon="-0.55388">
        <ele>176.06</ele>
        <time>2021-07-04T08:05:42Z</time>
      </trkpt>
      <trkpt lat="43.44714" lon="-0.55444">
        <ele>172.69</ele>
        <time>2021-07-04T08:05:57Z</time>
      </trkpt>
      <trkpt lat="43.44665" lon="-0.55504">
        <ele>172.21</ele>
        <time>2021-07-04T08:06:15Z</time>
      </trkpt>
      <trkpt lat="43.44629" lon="-0.55547">
        <ele>172.69</ele>
        <time>2021-07-04T08:06:29Z</time>
      </trkpt>
      <trkpt lat="43.44583" lon="-0.55603">
        <ele>172.69</ele>
        <time>2021-07-04T08:06:44Z</time>
      </trkpt>
      <trkpt lat="43.44536" lon="-0.55659">
        <ele>172.21</ele>
        <time>2021-07-04T08:07:00Z</time>
      </trkpt>
      <trkpt lat="43.44495" lon="-0.55711">
        <ele>173.17</ele>
        <time>2021-07-04T08:07:15Z</time>
      </trkpt>
      <trkpt lat="43.44472" lon="-0.55748">
        <ele>176.06</ele>
        <time>2021-07-04T08:07:28Z</time>
      </trkpt>
      <trkpt lat="43.44472" lon="-0.55749">
        <ele>179.9</ele>
        <time>2021-07-04T08:07:38Z</time>
      </trkpt>
      <trkpt lat="43.44472" lon="-0.55749">
        <ele>179.9</ele>
        <time>2021-07-04T08:08:09Z</time>
      </trkpt>
      <trkpt lat="43.44473" lon="-0.55751">
        <ele>179.9</ele>
        <time>2021-07-04T08:08:45Z</time>
      </trkpt>
      <trkpt lat="43.44472" lon="-0.55747">
        <ele>179.42</ele>
        <time>2021-07-04T08:09:21Z</time>
      </trkpt>
      <trkpt lat="43.44468" lon="-0.55751">
        <ele>174.62</ele>
        <time>2021-07-04T08:10:03Z</time>
      </trkpt>
      <trkpt lat="43.44471" lon="-0.5575">
        <ele>175.58</ele>
        <time>2021-07-04T08:10:31Z</time>
      </trkpt>
      <trkpt lat="43.44471" lon="-0.55747">
        <ele>175.1</ele>
        <time>2021-07-04T08:11:02Z</time>
      </trkpt>
      <trkpt lat="43.4447" lon="-0.55753">
        <ele>176.54</ele>
        <time>2021-07-04T08:11:19Z</time>
      </trkpt>
      <trkpt lat="43.44471" lon="-0.55753">
        <ele>177.02</ele>
        <time>2021-07-04T08:11:53Z</time>
      </trkpt>
      <trkpt lat="43.44469" lon="-0.55761">
        <ele>178.94</ele>
        <time>2021-07-04T08:12:08Z</time>
      </trkpt>
      <trkpt lat="43.44472" lon="-0.55763">
        <ele>178.46</ele>
        <time>2021-07-04T08:12:20Z</time>
      </trkpt>
      <trkpt lat="43.4449" lon="-0.55792">
        <ele>180.38</ele>
        <time>2021-07-04T08:12:35Z</time>
      </trkpt>
      <trkpt lat="43.44492" lon="-0.55838">
        <ele>180.87</ele>
        <time>2021-07-04T08:12:49Z</time>
      </trkpt>
      <trkpt lat="43.44496" lon="-0.5589">
        <ele>183.27</ele>
        <time>2021-07-04T08:13:02Z</time>
      </trkpt>
      <trkpt lat="43.44491" lon="-0.55946">
        <ele>184.23</ele>
        <time>2021-07-04T08:13:16Z</time>
      </trkpt>
      <trkpt lat="43.44466" lon="-0.55989">
        <ele>184.23</ele>
        <time>2021-07-04T08:13:28Z</time>
      </trkpt>
      <trkpt lat="43.44457" lon="-0.56002">
        <ele>183.75</ele>
        <time>2021-07-04T08:13:31Z</time>
      </trkpt>
      <trkpt lat="43.44447" lon="-0.56015">
        <ele>182.79</ele>
        <time>2021-07-04T08:13:34Z</time>
      </trkpt>
      <trkpt lat="43.44419" lon="-0.56029">
        <ele>181.35</ele>
        <time>2021-07-04T08:13:44Z</time>
      </trkpt>
      <trkpt lat="43.44401" lon="-0.5603">
        <ele>180.38</ele>
        <time>2021-07-04T08:13:56Z</time>
      </trkpt>
      <trkpt lat="43.44392" lon="-0.5603">
        <ele>181.83</ele>
        <time>2021-07-04T08:14:04Z</time>
      </trkpt>
      <trkpt lat="43.4439" lon="-0.56029">
        <ele>181.83</ele>
        <time>2021-07-04T08:14:05Z</time>
      </trkpt>
      <trkpt lat="43.44389" lon="-0.56029">
        <ele>182.31</ele>
        <time>2021-07-04T08:14:06Z</time>
      </trkpt>
      <trkpt lat="43.44387" lon="-0.56029">
        <ele>182.31</ele>
        <time>2021-07-04T08:14:07Z</time>
      </trkpt>
      <trkpt lat="43.44385" lon="-0.5603">
        <ele>182.79</ele>
        <time>2021-07-04T08:14:08Z</time>
      </trkpt>
      <trkpt lat="43.44384" lon="-0.5603">
        <ele>182.79</ele>
        <time>2021-07-04T08:14:09Z</time>
      </trkpt>
      <trkpt lat="43.44362" lon="-0.56022">
        <ele>190</ele>
        <time>2021-07-04T08:14:23Z</time>
      </trkpt>
      <trkpt lat="43.44348" lon="-0.55998">
        <ele>194.32</ele>
        <time>2021-07-04T08:14:38Z</time>
      </trkpt>
      <trkpt lat="43.44338" lon="-0.55978">
        <ele>198.17</ele>
        <time>2021-07-04T08:14:52Z</time>
      </trkpt>
      <trkpt lat="43.44333" lon="-0.55967">
        <ele>202.01</ele>
        <time>2021-07-04T08:14:59Z</time>
      </trkpt>
      <trkpt lat="43.44326" lon="-0.5595">
        <ele>208.26</ele>
        <time>2021-07-04T08:15:12Z</time>
      </trkpt>
      <trkpt lat="43.44321" lon="-0.55932">
        <ele>216.43</ele>
        <time>2021-07-04T08:15:25Z</time>
      </trkpt>
      <trkpt lat="43.44313" lon="-0.5591">
        <ele>223.16</ele>
        <time>2021-07-04T08:15:40Z</time>
      </trkpt>
      <trkpt lat="43.44302" lon="-0.55889">
        <ele>226.05</ele>
        <time>2021-07-04T08:15:56Z</time>
      </trkpt>
      <trkpt lat="43.44288" lon="-0.55869">
        <ele>225.09</ele>
        <time>2021-07-04T08:16:11Z</time>
      </trkpt>
      <trkpt lat="43.44269" lon="-0.55848">
        <ele>219.8</ele>
        <time>2021-07-04T08:16:25Z</time>
      </trkpt>
      <trkpt lat="43.44243" lon="-0.55822">
        <ele>217.4</ele>
        <time>2021-07-04T08:16:43Z</time>
      </trkpt>
      <trkpt lat="43.44219" lon="-0.55798">
        <ele>217.4</ele>
        <time>2021-07-04T08:17:00Z</time>
      </trkpt>
      <trkpt lat="43.44193" lon="-0.55778">
        <ele>218.36</ele>
        <time>2021-07-04T08:17:14Z</time>
      </trkpt>
      <trkpt lat="43.44162" lon="-0.55747">
        <ele>219.8</ele>
        <time>2021-07-04T08:17:29Z</time>
      </trkpt>
      <trkpt lat="43.44139" lon="-0.55719">
        <ele>220.28</ele>
        <time>2021-07-04T08:17:39Z</time>
      </trkpt>
      <trkpt lat="43.44103" lon="-0.55635">
        <ele>217.88</ele>
        <time>2021-07-04T08:17:56Z</time>
      </trkpt>
      <trkpt lat="43.44094" lon="-0.55612">
        <ele>216.91</ele>
        <time>2021-07-04T08:18:00Z</time>
      </trkpt>
      <trkpt lat="43.44054" lon="-0.55524">
        <ele>215.47</ele>
        <time>2021-07-04T08:18:16Z</time>
      </trkpt>
      <trkpt lat="43.44035" lon="-0.55485">
        <ele>215.47</ele>
        <time>2021-07-04T08:18:23Z</time>
      </trkpt>
      <trkpt lat="43.4401" lon="-0.55454">
        <ele>216.91</ele>
        <time>2021-07-04T08:18:30Z</time>
      </trkpt>
      <trkpt lat="43.44006" lon="-0.55451">
        <ele>217.4</ele>
        <time>2021-07-04T08:18:31Z</time>
      </trkpt>
      <trkpt lat="43.43948" lon="-0.55427">
        <ele>220.76</ele>
        <time>2021-07-04T08:18:47Z</time>
      </trkpt>
      <trkpt lat="43.43898" lon="-0.55396">
        <ele>224.12</ele>
        <time>2021-07-04T08:19:04Z</time>
      </trkpt>
      <trkpt lat="43.43872" lon="-0.55375">
        <ele>225.09</ele>
        <time>2021-07-04T08:19:17Z</time>
      </trkpt>
      <trkpt lat="43.43868" lon="-0.55379">
        <ele>225.09</ele>
        <time>2021-07-04T08:19:19Z</time>
      </trkpt>
      <trkpt lat="43.43867" lon="-0.55382">
        <ele>225.09</ele>
        <time>2021-07-04T08:19:20Z</time>
      </trkpt>
      <trkpt lat="43.43866" lon="-0.55425">
        <ele>225.09</ele>
        <time>2021-07-04T08:19:29Z</time>
      </trkpt>
      <trkpt lat="43.43869" lon="-0.55468">
        <ele>226.53</ele>
        <time>2021-07-04T08:19:41Z</time>
      </trkpt>
      <trkpt lat="43.43854" lon="-0.5552">
        <ele>228.45</ele>
        <time>2021-07-04T08:19:55Z</time>
      </trkpt>
      <trkpt lat="43.43831" lon="-0.5557">
        <ele>229.41</ele>
        <time>2021-07-04T08:20:10Z</time>
      </trkpt>
      <trkpt lat="43.43816" lon="-0.55638">
        <ele>232.3</ele>
        <time>2021-07-04T08:20:29Z</time>
      </trkpt>
      <trkpt lat="43.43808" lon="-0.55712">
        <ele>235.66</ele>
        <time>2021-07-04T08:20:48Z</time>
      </trkpt>
      <trkpt lat="43.43797" lon="-0.5577">
        <ele>233.74</ele>
        <time>2021-07-04T08:20:59Z</time>
      </trkpt>
      <trkpt lat="43.43792" lon="-0.5578">
        <ele>232.78</ele>
        <time>2021-07-04T08:21:01Z</time>
      </trkpt>
      <trkpt lat="43.43785" lon="-0.5579">
        <ele>231.81</ele>
        <time>2021-07-04T08:21:03Z</time>
      </trkpt>
      <trkpt lat="43.43781" lon="-0.55795">
        <ele>231.33</ele>
        <time>2021-07-04T08:21:04Z</time>
      </trkpt>
      <trkpt lat="43.43759" lon="-0.55821">
        <ele>228.93</ele>
        <time>2021-07-04T08:21:09Z</time>
      </trkpt>
      <trkpt lat="43.4372" lon="-0.5586">
        <ele>222.68</ele>
        <time>2021-07-04T08:21:18Z</time>
      </trkpt>
      <trkpt lat="43.43715" lon="-0.55864">
        <ele>222.2</ele>
        <time>2021-07-04T08:21:19Z</time>
      </trkpt>
      <trkpt lat="43.4371" lon="-0.55867">
        <ele>221.72</ele>
        <time>2021-07-04T08:21:20Z</time>
      </trkpt>
      <trkpt lat="43.43705" lon="-0.55869">
        <ele>221.24</ele>
        <time>2021-07-04T08:21:21Z</time>
      </trkpt>
      <trkpt lat="43.437" lon="-0.55869">
        <ele>220.76</ele>
        <time>2021-07-04T08:21:22Z</time>
      </trkpt>
      <trkpt lat="43.43696" lon="-0.55867">
        <ele>220.28</ele>
        <time>2021-07-04T08:21:23Z</time>
      </trkpt>
      <trkpt lat="43.43691" lon="-0.55865">
        <ele>219.8</ele>
        <time>2021-07-04T08:21:24Z</time>
      </trkpt>
      <trkpt lat="43.43686" lon="-0.55862">
        <ele>219.8</ele>
        <time>2021-07-04T08:21:25Z</time>
      </trkpt>
      <trkpt lat="43.43682" lon="-0.55858">
        <ele>219.32</ele>
        <time>2021-07-04T08:21:26Z</time>
      </trkpt>
      <trkpt lat="43.43677" lon="-0.55854">
        <ele>219.32</ele>
        <time>2021-07-04T08:21:27Z</time>
      </trkpt>
      <trkpt lat="43.43673" lon="-0.5585">
        <ele>219.32</ele>
        <time>2021-07-04T08:21:28Z</time>
      </trkpt>
      <trkpt lat="43.43645" lon="-0.55825">
        <ele>218.84</ele>
        <time>2021-07-04T08:21:35Z</time>
      </trkpt>
      <trkpt lat="43.43641" lon="-0.55821">
        <ele>218.84</ele>
        <time>2021-07-04T08:21:36Z</time>
      </trkpt>
      <trkpt lat="43.43637" lon="-0.55816">
        <ele>219.32</ele>
        <time>2021-07-04T08:21:37Z</time>
      </trkpt>
      <trkpt lat="43.43633" lon="-0.55811">
        <ele>219.32</ele>
        <time>2021-07-04T08:21:38Z</time>
      </trkpt>
      <trkpt lat="43.43629" lon="-0.55806">
        <ele>219.32</ele>
        <time>2021-07-04T08:21:39Z</time>
      </trkpt>
      <trkpt lat="43.43587" lon="-0.55764">
        <ele>219.8</ele>
        <time>2021-07-04T08:21:48Z</time>
      </trkpt>
      <trkpt lat="43.43584" lon="-0.55758">
        <ele>220.28</ele>
        <time>2021-07-04T08:21:49Z</time>
      </trkpt>
      <trkpt lat="43.4358" lon="-0.55754">
        <ele>220.28</ele>
        <time>2021-07-04T08:21:50Z</time>
      </trkpt>
      <trkpt lat="43.43577" lon="-0.55751">
        <ele>220.28</ele>
        <time>2021-07-04T08:21:51Z</time>
      </trkpt>
      <trkpt lat="43.43573" lon="-0.5575">
        <ele>220.76</ele>
        <time>2021-07-04T08:21:52Z</time>
      </trkpt>
      <trkpt lat="43.4357" lon="-0.55751">
        <ele>220.76</ele>
        <time>2021-07-04T08:21:53Z</time>
      </trkpt>
      <trkpt lat="43.43569" lon="-0.55752">
        <ele>220.76</ele>
        <time>2021-07-04T08:21:54Z</time>
      </trkpt>
      <trkpt lat="43.43568" lon="-0.55755">
        <ele>220.76</ele>
        <time>2021-07-04T08:21:55Z</time>
      </trkpt>
      <trkpt lat="43.43568" lon="-0.55757">
        <ele>220.76</ele>
        <time>2021-07-04T08:21:56Z</time>
      </trkpt>
      <trkpt lat="43.43568" lon="-0.5576">
        <ele>220.76</ele>
        <time>2021-07-04T08:21:57Z</time>
      </trkpt>
      <trkpt lat="43.43569" lon="-0.55762">
        <ele>220.76</ele>
        <time>2021-07-04T08:21:58Z</time>
      </trkpt>
      <trkpt lat="43.43569" lon="-0.55763">
        <ele>220.76</ele>
        <time>2021-07-04T08:21:59Z</time>
      </trkpt>
      <trkpt lat="43.4357" lon="-0.55765">
        <ele>220.76</ele>
        <time>2021-07-04T08:22:00Z</time>
      </trkpt>
      <trkpt lat="43.4357" lon="-0.55771">
        <ele>220.76</ele>
        <time>2021-07-04T08:22:04Z</time>
      </trkpt>
      <trkpt lat="43.4357" lon="-0.55773">
        <ele>221.24</ele>
        <time>2021-07-04T08:22:05Z</time>
      </trkpt>
      <trkpt lat="43.4357" lon="-0.55774">
        <ele>221.24</ele>
        <time>2021-07-04T08:22:06Z</time>
      </trkpt>
      <trkpt lat="43.43571" lon="-0.55776">
        <ele>221.72</ele>
        <time>2021-07-04T08:22:07Z</time>
      </trkpt>
      <trkpt lat="43.4357" lon="-0.55803">
        <ele>224.12</ele>
        <time>2021-07-04T08:22:22Z</time>
      </trkpt>
      <trkpt lat="43.43569" lon="-0.55826">
        <ele>222.2</ele>
        <time>2021-07-04T08:22:35Z</time>
      </trkpt>
      <trkpt lat="43.43568" lon="-0.55844">
        <ele>221.72</ele>
        <time>2021-07-04T08:22:45Z</time>
      </trkpt>
      <trkpt lat="43.43568" lon="-0.5585">
        <ele>222.68</ele>
        <time>2021-07-04T08:22:48Z</time>
      </trkpt>
      <trkpt lat="43.43563" lon="-0.55863">
        <ele>224.61</ele>
        <time>2021-07-04T08:22:54Z</time>
      </trkpt>
      <trkpt lat="43.43551" lon="-0.55892">
        <ele>223.64</ele>
        <time>2021-07-04T08:23:04Z</time>
      </trkpt>
      <trkpt lat="43.43551" lon="-0.55895">
        <ele>223.16</ele>
        <time>2021-07-04T08:23:05Z</time>
      </trkpt>
      <trkpt lat="43.4355" lon="-0.55899">
        <ele>223.16</ele>
        <time>2021-07-04T08:23:06Z</time>
      </trkpt>
      <trkpt lat="43.43549" lon="-0.55903">
        <ele>222.68</ele>
        <time>2021-07-04T08:23:07Z</time>
      </trkpt>
      <trkpt lat="43.43548" lon="-0.55907">
        <ele>222.68</ele>
        <time>2021-07-04T08:23:08Z</time>
      </trkpt>
      <trkpt lat="43.43547" lon="-0.55917">
        <ele>222.68</ele>
        <time>2021-07-04T08:23:10Z</time>
      </trkpt>
      <trkpt lat="43.43561" lon="-0.55966">
        <ele>221.24</ele>
        <time>2021-07-04T08:23:17Z</time>
      </trkpt>
      <trkpt lat="43.43567" lon="-0.55979">
        <ele>220.76</ele>
        <time>2021-07-04T08:23:19Z</time>
      </trkpt>
      <trkpt lat="43.4357" lon="-0.55987">
        <ele>220.28</ele>
        <time>2021-07-04T08:23:20Z</time>
      </trkpt>
      <trkpt lat="43.43591" lon="-0.56033">
        <ele>219.32</ele>
        <time>2021-07-04T08:23:26Z</time>
      </trkpt>
      <trkpt lat="43.43596" lon="-0.5604">
        <ele>218.84</ele>
        <time>2021-07-04T08:23:27Z</time>
      </trkpt>
      <trkpt lat="43.436" lon="-0.56046">
        <ele>218.84</ele>
        <time>2021-07-04T08:23:28Z</time>
      </trkpt>
      <trkpt lat="43.43604" lon="-0.56052">
        <ele>218.36</ele>
        <time>2021-07-04T08:23:29Z</time>
      </trkpt>
      <trkpt lat="43.43608" lon="-0.56059">
        <ele>218.36</ele>
        <time>2021-07-04T08:23:30Z</time>
      </trkpt>
      <trkpt lat="43.4365" lon="-0.56122">
        <ele>215.47</ele>
        <time>2021-07-04T08:23:39Z</time>
      </trkpt>
      <trkpt lat="43.43654" lon="-0.56129">
        <ele>215.95</ele>
        <time>2021-07-04T08:23:40Z</time>
      </trkpt>
      <trkpt lat="43.43702" lon="-0.56217">
        <ele>217.4</ele>
        <time>2021-07-04T08:23:52Z</time>
      </trkpt>
      <trkpt lat="43.43729" lon="-0.56267">
        <ele>218.84</ele>
        <time>2021-07-04T08:24:00Z</time>
      </trkpt>
      <trkpt lat="43.43748" lon="-0.56299">
        <ele>221.72</ele>
        <time>2021-07-04T08:24:06Z</time>
      </trkpt>
      <trkpt lat="43.43775" lon="-0.56351">
        <ele>227.97</ele>
        <time>2021-07-04T08:24:17Z</time>
      </trkpt>
      <trkpt lat="43.43805" lon="-0.56398">
        <ele>233.26</ele>
        <time>2021-07-04T08:24:29Z</time>
      </trkpt>
      <trkpt lat="43.43832" lon="-0.56474">
        <ele>233.26</ele>
        <time>2021-07-04T08:24:44Z</time>
      </trkpt>
      <trkpt lat="43.43858" lon="-0.5655">
        <ele>234.22</ele>
        <time>2021-07-04T08:24:58Z</time>
      </trkpt>
      <trkpt lat="43.4387" lon="-0.56583">
        <ele>236.62</ele>
        <time>2021-07-04T08:25:04Z</time>
      </trkpt>
      <trkpt lat="43.43872" lon="-0.5659">
        <ele>236.62</ele>
        <time>2021-07-04T08:25:05Z</time>
      </trkpt>
      <trkpt lat="43.43882" lon="-0.56621">
        <ele>236.14</ele>
        <time>2021-07-04T08:25:09Z</time>
      </trkpt>
      <trkpt lat="43.43918" lon="-0.56722">
        <ele>233.74</ele>
        <time>2021-07-04T08:25:20Z</time>
      </trkpt>
      <trkpt lat="43.43927" lon="-0.56748">
        <ele>232.78</ele>
        <time>2021-07-04T08:25:23Z</time>
      </trkpt>
      <trkpt lat="43.43929" lon="-0.56756">
        <ele>232.3</ele>
        <time>2021-07-04T08:25:24Z</time>
      </trkpt>
      <trkpt lat="43.43937" lon="-0.56778">
        <ele>231.33</ele>
        <time>2021-07-04T08:25:27Z</time>
      </trkpt>
      <trkpt lat="43.43944" lon="-0.56793">
        <ele>230.37</ele>
        <time>2021-07-04T08:25:29Z</time>
      </trkpt>
      <trkpt lat="43.43947" lon="-0.568">
        <ele>229.89</ele>
        <time>2021-07-04T08:25:30Z</time>
      </trkpt>
      <trkpt lat="43.4395" lon="-0.56807">
        <ele>229.41</ele>
        <time>2021-07-04T08:25:31Z</time>
      </trkpt>
      <trkpt lat="43.43952" lon="-0.56815">
        <ele>228.93</ele>
        <time>2021-07-04T08:25:32Z</time>
      </trkpt>
      <trkpt lat="43.43955" lon="-0.56822">
        <ele>228.45</ele>
        <time>2021-07-04T08:25:33Z</time>
      </trkpt>
      <trkpt lat="43.43957" lon="-0.56828">
        <ele>227.97</ele>
        <time>2021-07-04T08:25:34Z</time>
      </trkpt>
      <trkpt lat="43.43959" lon="-0.56839">
        <ele>226.53</ele>
        <time>2021-07-04T08:25:36Z</time>
      </trkpt>
      <trkpt lat="43.43957" lon="-0.56843">
        <ele>226.05</ele>
        <time>2021-07-04T08:25:37Z</time>
      </trkpt>
      <trkpt lat="43.43955" lon="-0.56845">
        <ele>225.09</ele>
        <time>2021-07-04T08:25:38Z</time>
      </trkpt>
      <trkpt lat="43.43952" lon="-0.56846">
        <ele>224.61</ele>
        <time>2021-07-04T08:25:39Z</time>
      </trkpt>
      <trkpt lat="43.43948" lon="-0.56848">
        <ele>223.64</ele>
        <time>2021-07-04T08:25:40Z</time>
      </trkpt>
      <trkpt lat="43.43944" lon="-0.5685">
        <ele>223.16</ele>
        <time>2021-07-04T08:25:41Z</time>
      </trkpt>
      <trkpt lat="43.43941" lon="-0.56854">
        <ele>222.68</ele>
        <time>2021-07-04T08:25:42Z</time>
      </trkpt>
      <trkpt lat="43.43936" lon="-0.56858">
        <ele>221.72</ele>
        <time>2021-07-04T08:25:43Z</time>
      </trkpt>
      <trkpt lat="43.43927" lon="-0.56868">
        <ele>220.28</ele>
        <time>2021-07-04T08:25:45Z</time>
      </trkpt>
      <trkpt lat="43.43923" lon="-0.56876">
        <ele>219.32</ele>
        <time>2021-07-04T08:25:46Z</time>
      </trkpt>
      <trkpt lat="43.43919" lon="-0.56883">
        <ele>218.36</ele>
        <time>2021-07-04T08:25:47Z</time>
      </trkpt>
      <trkpt lat="43.43915" lon="-0.56888">
        <ele>217.4</ele>
        <time>2021-07-04T08:25:48Z</time>
      </trkpt>
      <trkpt lat="43.43913" lon="-0.56893">
        <ele>215.47</ele>
        <time>2021-07-04T08:25:49Z</time>
      </trkpt>
      <trkpt lat="43.43912" lon="-0.56898">
        <ele>214.51</ele>
        <time>2021-07-04T08:25:50Z</time>
      </trkpt>
      <trkpt lat="43.43912" lon="-0.56904">
        <ele>213.07</ele>
        <time>2021-07-04T08:25:51Z</time>
      </trkpt>
      <trkpt lat="43.43913" lon="-0.5691">
        <ele>211.63</ele>
        <time>2021-07-04T08:25:52Z</time>
      </trkpt>
      <trkpt lat="43.43912" lon="-0.56916">
        <ele>210.19</ele>
        <time>2021-07-04T08:25:53Z</time>
      </trkpt>
      <trkpt lat="43.43911" lon="-0.56922">
        <ele>208.26</ele>
        <time>2021-07-04T08:25:54Z</time>
      </trkpt>
      <trkpt lat="43.43908" lon="-0.56926">
        <ele>207.3</ele>
        <time>2021-07-04T08:25:55Z</time>
      </trkpt>
      <trkpt lat="43.43905" lon="-0.56929">
        <ele>206.34</ele>
        <time>2021-07-04T08:25:56Z</time>
      </trkpt>
      <trkpt lat="43.43896" lon="-0.56932">
        <ele>204.9</ele>
        <time>2021-07-04T08:25:58Z</time>
      </trkpt>
      <trkpt lat="43.43891" lon="-0.56932">
        <ele>203.94</ele>
        <time>2021-07-04T08:25:59Z</time>
      </trkpt>
      <trkpt lat="43.43886" lon="-0.5693">
        <ele>202.98</ele>
        <time>2021-07-04T08:26:00Z</time>
      </trkpt>
      <trkpt lat="43.4388" lon="-0.56927">
        <ele>202.01</ele>
        <time>2021-07-04T08:26:01Z</time>
      </trkpt>
      <trkpt lat="43.43868" lon="-0.56924">
        <ele>200.57</ele>
        <time>2021-07-04T08:26:03Z</time>
      </trkpt>
      <trkpt lat="43.43861" lon="-0.56923">
        <ele>200.09</ele>
        <time>2021-07-04T08:26:04Z</time>
      </trkpt>
      <trkpt lat="43.43846" lon="-0.56921">
        <ele>199.13</ele>
        <time>2021-07-04T08:26:06Z</time>
      </trkpt>
      <trkpt lat="43.43839" lon="-0.56919">
        <ele>198.65</ele>
        <time>2021-07-04T08:26:07Z</time>
      </trkpt>
      <trkpt lat="43.43832" lon="-0.56916">
        <ele>198.17</ele>
        <time>2021-07-04T08:26:08Z</time>
      </trkpt>
      <trkpt lat="43.43827" lon="-0.56911">
        <ele>197.69</ele>
        <time>2021-07-04T08:26:09Z</time>
      </trkpt>
      <trkpt lat="43.43822" lon="-0.56906">
        <ele>197.21</ele>
        <time>2021-07-04T08:26:10Z</time>
      </trkpt>
      <trkpt lat="43.43818" lon="-0.56899">
        <ele>196.73</ele>
        <time>2021-07-04T08:26:11Z</time>
      </trkpt>
      <trkpt lat="43.43814" lon="-0.56892">
        <ele>195.77</ele>
        <time>2021-07-04T08:26:12Z</time>
      </trkpt>
      <trkpt lat="43.4381" lon="-0.56885">
        <ele>194.8</ele>
        <time>2021-07-04T08:26:13Z</time>
      </trkpt>
      <trkpt lat="43.43799" lon="-0.56862">
        <ele>192.4</ele>
        <time>2021-07-04T08:26:16Z</time>
      </trkpt>
      <trkpt lat="43.43796" lon="-0.56856">
        <ele>191.44</ele>
        <time>2021-07-04T08:26:17Z</time>
      </trkpt>
      <trkpt lat="43.43793" lon="-0.5685">
        <ele>190.48</ele>
        <time>2021-07-04T08:26:18Z</time>
      </trkpt>
      <trkpt lat="43.43789" lon="-0.56845">
        <ele>190</ele>
        <time>2021-07-04T08:26:19Z</time>
      </trkpt>
      <trkpt lat="43.43783" lon="-0.56841">
        <ele>189.52</ele>
        <time>2021-07-04T08:26:20Z</time>
      </trkpt>
      <trkpt lat="43.43776" lon="-0.56839">
        <ele>189.04</ele>
        <time>2021-07-04T08:26:21Z</time>
      </trkpt>
      <trkpt lat="43.43768" lon="-0.56838">
        <ele>188.56</ele>
        <time>2021-07-04T08:26:22Z</time>
      </trkpt>
      <trkpt lat="43.4376" lon="-0.56838">
        <ele>188.56</ele>
        <time>2021-07-04T08:26:23Z</time>
      </trkpt>
      <trkpt lat="43.4373" lon="-0.56837">
        <ele>187.11</ele>
        <time>2021-07-04T08:26:27Z</time>
      </trkpt>
      <trkpt lat="43.43717" lon="-0.56833">
        <ele>186.15</ele>
        <time>2021-07-04T08:26:29Z</time>
      </trkpt>
      <trkpt lat="43.43711" lon="-0.5683">
        <ele>185.67</ele>
        <time>2021-07-04T08:26:30Z</time>
      </trkpt>
      <trkpt lat="43.4368" lon="-0.56812">
        <ele>182.31</ele>
        <time>2021-07-04T08:26:36Z</time>
      </trkpt>
      <trkpt lat="43.43677" lon="-0.56812">
        <ele>181.83</ele>
        <time>2021-07-04T08:26:37Z</time>
      </trkpt>
      <trkpt lat="43.43674" lon="-0.56814">
        <ele>181.35</ele>
        <time>2021-07-04T08:26:38Z</time>
      </trkpt>
      <trkpt lat="43.43673" lon="-0.56815">
        <ele>179.42</ele>
        <time>2021-07-04T08:26:39Z</time>
      </trkpt>
      <trkpt lat="43.43673" lon="-0.56818">
        <ele>178.94</ele>
        <time>2021-07-04T08:26:40Z</time>
      </trkpt>
      <trkpt lat="43.43674" lon="-0.5682">
        <ele>178.46</ele>
        <time>2021-07-04T08:26:41Z</time>
      </trkpt>
      <trkpt lat="43.43675" lon="-0.56824">
        <ele>178.46</ele>
        <time>2021-07-04T08:26:42Z</time>
      </trkpt>
      <trkpt lat="43.43687" lon="-0.56855">
        <ele>177.98</ele>
        <time>2021-07-04T08:26:49Z</time>
      </trkpt>
      <trkpt lat="43.43704" lon="-0.56896">
        <ele>178.46</ele>
        <time>2021-07-04T08:26:57Z</time>
      </trkpt>
      <trkpt lat="43.43712" lon="-0.56955">
        <ele>181.83</ele>
        <time>2021-07-04T08:27:09Z</time>
      </trkpt>
      <trkpt lat="43.43715" lon="-0.56991">
        <ele>181.35</ele>
        <time>2021-07-04T08:27:15Z</time>
      </trkpt>
      <trkpt lat="43.43716" lon="-0.57004">
        <ele>180.87</ele>
        <time>2021-07-04T08:27:17Z</time>
      </trkpt>
      <trkpt lat="43.43719" lon="-0.57037">
        <ele>178.94</ele>
        <time>2021-07-04T08:27:21Z</time>
      </trkpt>
      <trkpt lat="43.43725" lon="-0.57054">
        <ele>176.54</ele>
        <time>2021-07-04T08:27:23Z</time>
      </trkpt>
      <trkpt lat="43.43746" lon="-0.57108">
        <ele>169.81</ele>
        <time>2021-07-04T08:27:30Z</time>
      </trkpt>
      <trkpt lat="43.43749" lon="-0.57116">
        <ele>168.85</ele>
        <time>2021-07-04T08:27:31Z</time>
      </trkpt>
      <trkpt lat="43.43765" lon="-0.57172">
        <ele>160.2</ele>
        <time>2021-07-04T08:27:37Z</time>
      </trkpt>
      <trkpt lat="43.43769" lon="-0.57179">
        <ele>159.24</ele>
        <time>2021-07-04T08:27:38Z</time>
      </trkpt>
      <trkpt lat="43.43774" lon="-0.57186">
        <ele>158.27</ele>
        <time>2021-07-04T08:27:39Z</time>
      </trkpt>
      <trkpt lat="43.43821" lon="-0.5725">
        <ele>148.18</ele>
        <time>2021-07-04T08:27:51Z</time>
      </trkpt>
      <trkpt lat="43.43857" lon="-0.57332">
        <ele>147.7</ele>
        <time>2021-07-04T08:28:05Z</time>
      </trkpt>
      <trkpt lat="43.43868" lon="-0.57365">
        <ele>150.1</ele>
        <time>2021-07-04T08:28:12Z</time>
      </trkpt>
      <trkpt lat="43.43865" lon="-0.5737">
        <ele>150.58</ele>
        <time>2021-07-04T08:28:13Z</time>
      </trkpt>
      <trkpt lat="43.43863" lon="-0.57373">
        <ele>150.58</ele>
        <time>2021-07-04T08:28:14Z</time>
      </trkpt>
      <trkpt lat="43.43816" lon="-0.57433">
        <ele>145.3</ele>
        <time>2021-07-04T08:28:24Z</time>
      </trkpt>
      <trkpt lat="43.438" lon="-0.57461">
        <ele>143.37</ele>
        <time>2021-07-04T08:28:27Z</time>
      </trkpt>
      <trkpt lat="43.4374" lon="-0.5762">
        <ele>137.61</ele>
        <time>2021-07-04T08:28:44Z</time>
      </trkpt>
      <trkpt lat="43.43726" lon="-0.57657">
        <ele>136.64</ele>
        <time>2021-07-04T08:28:48Z</time>
      </trkpt>
      <trkpt lat="43.43723" lon="-0.57666">
        <ele>136.16</ele>
        <time>2021-07-04T08:28:49Z</time>
      </trkpt>
      <trkpt lat="43.43723" lon="-0.57677">
        <ele>135.68</ele>
        <time>2021-07-04T08:28:50Z</time>
      </trkpt>
      <trkpt lat="43.43724" lon="-0.57686">
        <ele>135.68</ele>
        <time>2021-07-04T08:28:51Z</time>
      </trkpt>
      <trkpt lat="43.43726" lon="-0.57696">
        <ele>135.68</ele>
        <time>2021-07-04T08:28:52Z</time>
      </trkpt>
      <trkpt lat="43.43745" lon="-0.5776">
        <ele>134.72</ele>
        <time>2021-07-04T08:28:59Z</time>
      </trkpt>
      <trkpt lat="43.43748" lon="-0.57769">
        <ele>134.72</ele>
        <time>2021-07-04T08:29:00Z</time>
      </trkpt>
      <trkpt lat="43.43773" lon="-0.57819">
        <ele>134.24</ele>
        <time>2021-07-04T08:29:06Z</time>
      </trkpt>
      <trkpt lat="43.43775" lon="-0.57828">
        <ele>134.24</ele>
        <time>2021-07-04T08:29:07Z</time>
      </trkpt>
      <trkpt lat="43.43787" lon="-0.57881">
        <ele>133.76</ele>
        <time>2021-07-04T08:29:13Z</time>
      </trkpt>
      <trkpt lat="43.43787" lon="-0.57889">
        <ele>133.28</ele>
        <time>2021-07-04T08:29:14Z</time>
      </trkpt>
      <trkpt lat="43.43787" lon="-0.57898">
        <ele>132.8</ele>
        <time>2021-07-04T08:29:15Z</time>
      </trkpt>
      <trkpt lat="43.43787" lon="-0.57907">
        <ele>132.32</ele>
        <time>2021-07-04T08:29:16Z</time>
      </trkpt>
      <trkpt lat="43.43787" lon="-0.57915">
        <ele>132.32</ele>
        <time>2021-07-04T08:29:17Z</time>
      </trkpt>
      <trkpt lat="43.43789" lon="-0.57924">
        <ele>131.84</ele>
        <time>2021-07-04T08:29:18Z</time>
      </trkpt>
      <trkpt lat="43.43791" lon="-0.57932">
        <ele>131.84</ele>
        <time>2021-07-04T08:29:19Z</time>
      </trkpt>
      <trkpt lat="43.43793" lon="-0.57939">
        <ele>131.36</ele>
        <time>2021-07-04T08:29:20Z</time>
      </trkpt>
      <trkpt lat="43.43796" lon="-0.57946">
        <ele>131.36</ele>
        <time>2021-07-04T08:29:21Z</time>
      </trkpt>
      <trkpt lat="43.43833" lon="-0.58031">
        <ele>133.28</ele>
        <time>2021-07-04T08:29:34Z</time>
      </trkpt>
      <trkpt lat="43.43874" lon="-0.58118">
        <ele>133.28</ele>
        <time>2021-07-04T08:29:48Z</time>
      </trkpt>
      <trkpt lat="43.43913" lon="-0.58206">
        <ele>133.76</ele>
        <time>2021-07-04T08:30:02Z</time>
      </trkpt>
      <trkpt lat="43.43935" lon="-0.58254">
        <ele>135.2</ele>
        <time>2021-07-04T08:30:10Z</time>
      </trkpt>
      <trkpt lat="43.43937" lon="-0.58259">
        <ele>135.2</ele>
        <time>2021-07-04T08:30:11Z</time>
      </trkpt>
      <trkpt lat="43.43962" lon="-0.58315">
        <ele>136.64</ele>
        <time>2021-07-04T08:30:21Z</time>
      </trkpt>
      <trkpt lat="43.43963" lon="-0.58321">
        <ele>136.64</ele>
        <time>2021-07-04T08:30:22Z</time>
      </trkpt>
      <trkpt lat="43.43964" lon="-0.58326">
        <ele>137.13</ele>
        <time>2021-07-04T08:30:23Z</time>
      </trkpt>
      <trkpt lat="43.43967" lon="-0.58351">
        <ele>136.16</ele>
        <time>2021-07-04T08:30:28Z</time>
      </trkpt>
      <trkpt lat="43.43965" lon="-0.58355">
        <ele>135.68</ele>
        <time>2021-07-04T08:30:29Z</time>
      </trkpt>
      <trkpt lat="43.43963" lon="-0.58359">
        <ele>135.2</ele>
        <time>2021-07-04T08:30:30Z</time>
      </trkpt>
      <trkpt lat="43.43959" lon="-0.58363">
        <ele>134.72</ele>
        <time>2021-07-04T08:30:31Z</time>
      </trkpt>
      <trkpt lat="43.43955" lon="-0.58366">
        <ele>134.24</ele>
        <time>2021-07-04T08:30:32Z</time>
      </trkpt>
      <trkpt lat="43.43881" lon="-0.58426">
        <ele>130.4</ele>
        <time>2021-07-04T08:30:49Z</time>
      </trkpt>
      <trkpt lat="43.43846" lon="-0.58458">
        <ele>130.4</ele>
        <time>2021-07-04T08:30:57Z</time>
      </trkpt>
      <trkpt lat="43.43811" lon="-0.58502">
        <ele>128.95</ele>
        <time>2021-07-04T08:31:07Z</time>
      </trkpt>
      <trkpt lat="43.43804" lon="-0.58516">
        <ele>128.95</ele>
        <time>2021-07-04T08:31:10Z</time>
      </trkpt>
      <trkpt lat="43.43801" lon="-0.58517">
        <ele>128.95</ele>
        <time>2021-07-04T08:31:11Z</time>
      </trkpt>
      <trkpt lat="43.43798" lon="-0.58517">
        <ele>128.95</ele>
        <time>2021-07-04T08:31:12Z</time>
      </trkpt>
      <trkpt lat="43.43795" lon="-0.58517">
        <ele>128.47</ele>
        <time>2021-07-04T08:31:13Z</time>
      </trkpt>
      <trkpt lat="43.43792" lon="-0.58515">
        <ele>128.47</ele>
        <time>2021-07-04T08:31:14Z</time>
      </trkpt>
      <trkpt lat="43.43788" lon="-0.58514">
        <ele>128.47</ele>
        <time>2021-07-04T08:31:15Z</time>
      </trkpt>
      <trkpt lat="43.43783" lon="-0.58512">
        <ele>128.47</ele>
        <time>2021-07-04T08:31:16Z</time>
      </trkpt>
      <trkpt lat="43.43691" lon="-0.58466">
        <ele>125.59</ele>
        <time>2021-07-04T08:31:35Z</time>
      </trkpt>
      <trkpt lat="43.43623" lon="-0.58433">
        <ele>124.15</ele>
        <time>2021-07-04T08:31:50Z</time>
      </trkpt>
      <trkpt lat="43.43554" lon="-0.584">
        <ele>123.67</ele>
        <time>2021-07-04T08:32:07Z</time>
      </trkpt>
      <trkpt lat="43.43478" lon="-0.58366">
        <ele>124.63</ele>
        <time>2021-07-04T08:32:26Z</time>
      </trkpt>
      <trkpt lat="43.43404" lon="-0.58337">
        <ele>124.63</ele>
        <time>2021-07-04T08:32:43Z</time>
      </trkpt>
      <trkpt lat="43.43371" lon="-0.58323">
        <ele>126.55</ele>
        <time>2021-07-04T08:32:56Z</time>
      </trkpt>
      <trkpt lat="43.43343" lon="-0.58304">
        <ele>128.47</ele>
        <time>2021-07-04T08:33:09Z</time>
      </trkpt>
      <trkpt lat="43.43321" lon="-0.58276">
        <ele>131.36</ele>
        <time>2021-07-04T08:33:22Z</time>
      </trkpt>
      <trkpt lat="43.43301" lon="-0.58243">
        <ele>135.2</ele>
        <time>2021-07-04T08:33:37Z</time>
      </trkpt>
      <trkpt lat="43.43289" lon="-0.58219">
        <ele>140.01</ele>
        <time>2021-07-04T08:33:50Z</time>
      </trkpt>
      <trkpt lat="43.43278" lon="-0.58195">
        <ele>144.34</ele>
        <time>2021-07-04T08:34:04Z</time>
      </trkpt>
      <trkpt lat="43.43263" lon="-0.58176">
        <ele>147.7</ele>
        <time>2021-07-04T08:34:20Z</time>
      </trkpt>
      <trkpt lat="43.43249" lon="-0.58167">
        <ele>147.7</ele>
        <time>2021-07-04T08:34:32Z</time>
      </trkpt>
      <trkpt lat="43.43247" lon="-0.58167">
        <ele>147.7</ele>
        <time>2021-07-04T08:34:33Z</time>
      </trkpt>
      <trkpt lat="43.43246" lon="-0.58167">
        <ele>148.18</ele>
        <time>2021-07-04T08:34:34Z</time>
      </trkpt>
      <trkpt lat="43.43232" lon="-0.58171">
        <ele>149.62</ele>
        <time>2021-07-04T08:34:48Z</time>
      </trkpt>
      <trkpt lat="43.43225" lon="-0.58189">
        <ele>151.54</ele>
        <time>2021-07-04T08:35:03Z</time>
      </trkpt>
      <trkpt lat="43.43213" lon="-0.58211">
        <ele>154.43</ele>
        <time>2021-07-04T08:35:17Z</time>
      </trkpt>
      <trkpt lat="43.43212" lon="-0.58212">
        <ele>154.43</ele>
        <time>2021-07-04T08:35:18Z</time>
      </trkpt>
      <trkpt lat="43.43197" lon="-0.58219">
        <ele>155.87</ele>
        <time>2021-07-04T08:35:30Z</time>
      </trkpt>
      <trkpt lat="43.43174" lon="-0.58211">
        <ele>156.83</ele>
        <time>2021-07-04T08:35:46Z</time>
      </trkpt>
      <trkpt lat="43.43158" lon="-0.58205">
        <ele>158.75</ele>
        <time>2021-07-04T08:35:57Z</time>
      </trkpt>
      <trkpt lat="43.4314" lon="-0.58214">
        <ele>161.64</ele>
        <time>2021-07-04T08:36:09Z</time>
      </trkpt>
      <trkpt lat="43.43124" lon="-0.58232">
        <ele>162.6</ele>
        <time>2021-07-04T08:36:23Z</time>
      </trkpt>
      <trkpt lat="43.43122" lon="-0.58233">
        <ele>162.6</ele>
        <time>2021-07-04T08:36:24Z</time>
      </trkpt>
      <trkpt lat="43.43101" lon="-0.58242">
        <ele>164.04</ele>
        <time>2021-07-04T08:36:37Z</time>
      </trkpt>
      <trkpt lat="43.431" lon="-0.58241">
        <ele>164.04</ele>
        <time>2021-07-04T08:36:38Z</time>
      </trkpt>
      <trkpt lat="43.43098" lon="-0.5824">
        <ele>164.04</ele>
        <time>2021-07-04T08:36:39Z</time>
      </trkpt>
      <trkpt lat="43.43097" lon="-0.5824">
        <ele>164.04</ele>
        <time>2021-07-04T08:36:40Z</time>
      </trkpt>
      <trkpt lat="43.43095" lon="-0.58239">
        <ele>164.04</ele>
        <time>2021-07-04T08:36:41Z</time>
      </trkpt>
      <trkpt lat="43.43094" lon="-0.58238">
        <ele>164.04</ele>
        <time>2021-07-04T08:36:42Z</time>
      </trkpt>
      <trkpt lat="43.43092" lon="-0.58237">
        <ele>164.04</ele>
        <time>2021-07-04T08:36:43Z</time>
      </trkpt>
      <trkpt lat="43.43082" lon="-0.5823">
        <ele>163.56</ele>
        <time>2021-07-04T08:36:50Z</time>
      </trkpt>
      <trkpt lat="43.43082" lon="-0.58228">
        <ele>163.56</ele>
        <time>2021-07-04T08:36:51Z</time>
      </trkpt>
      <trkpt lat="43.43083" lon="-0.58226">
        <ele>163.56</ele>
        <time>2021-07-04T08:36:52Z</time>
      </trkpt>
      <trkpt lat="43.43083" lon="-0.58224">
        <ele>163.56</ele>
        <time>2021-07-04T08:36:53Z</time>
      </trkpt>
      <trkpt lat="43.43084" lon="-0.58223">
        <ele>163.56</ele>
        <time>2021-07-04T08:36:54Z</time>
      </trkpt>
      <trkpt lat="43.43085" lon="-0.58221">
        <ele>163.56</ele>
        <time>2021-07-04T08:36:55Z</time>
      </trkpt>
      <trkpt lat="43.43099" lon="-0.58199">
        <ele>165.96</ele>
        <time>2021-07-04T08:37:10Z</time>
      </trkpt>
      <trkpt lat="43.43116" lon="-0.58175">
        <ele>170.29</ele>
        <time>2021-07-04T08:37:24Z</time>
      </trkpt>
      <trkpt lat="43.43123" lon="-0.58154">
        <ele>171.73</ele>
        <time>2021-07-04T08:37:36Z</time>
      </trkpt>
      <trkpt lat="43.43127" lon="-0.5813">
        <ele>173.66</ele>
        <time>2021-07-04T08:37:48Z</time>
      </trkpt>
      <trkpt lat="43.43127" lon="-0.58128">
        <ele>173.66</ele>
        <time>2021-07-04T08:37:49Z</time>
      </trkpt>
      <trkpt lat="43.43128" lon="-0.58126">
        <ele>174.14</ele>
        <time>2021-07-04T08:37:50Z</time>
      </trkpt>
      <trkpt lat="43.43129" lon="-0.58124">
        <ele>174.14</ele>
        <time>2021-07-04T08:37:51Z</time>
      </trkpt>
      <trkpt lat="43.43129" lon="-0.58122">
        <ele>174.62</ele>
        <time>2021-07-04T08:37:52Z</time>
      </trkpt>
      <trkpt lat="43.4313" lon="-0.5812">
        <ele>174.62</ele>
        <time>2021-07-04T08:37:53Z</time>
      </trkpt>
      <trkpt lat="43.43139" lon="-0.58073">
        <ele>176.06</ele>
        <time>2021-07-04T08:38:07Z</time>
      </trkpt>
      <trkpt lat="43.4314" lon="-0.58042">
        <ele>175.1</ele>
        <time>2021-07-04T08:38:12Z</time>
      </trkpt>
      <trkpt lat="43.43141" lon="-0.58036">
        <ele>174.62</ele>
        <time>2021-07-04T08:38:13Z</time>
      </trkpt>
      <trkpt lat="43.43146" lon="-0.57972">
        <ele>174.14</ele>
        <time>2021-07-04T08:38:26Z</time>
      </trkpt>
      <trkpt lat="43.43126" lon="-0.5791">
        <ele>171.25</ele>
        <time>2021-07-04T08:38:39Z</time>
      </trkpt>
      <trkpt lat="43.43116" lon="-0.5786">
        <ele>167.89</ele>
        <time>2021-07-04T08:38:45Z</time>
      </trkpt>
      <trkpt lat="43.43115" lon="-0.57846">
        <ele>167.41</ele>
        <time>2021-07-04T08:38:47Z</time>
      </trkpt>
      <trkpt lat="43.43115" lon="-0.5784">
        <ele>167.41</ele>
        <time>2021-07-04T08:38:48Z</time>
      </trkpt>
      <trkpt lat="43.43109" lon="-0.5778">
        <ele>167.89</ele>
        <time>2021-07-04T08:39:01Z</time>
      </trkpt>
      <trkpt lat="43.43091" lon="-0.57726">
        <ele>169.81</ele>
        <time>2021-07-04T08:39:16Z</time>
      </trkpt>
      <trkpt lat="43.43077" lon="-0.57706">
        <ele>176.54</ele>
        <time>2021-07-04T08:39:30Z</time>
      </trkpt>
      <trkpt lat="43.43053" lon="-0.57689">
        <ele>177.02</ele>
        <time>2021-07-04T08:39:45Z</time>
      </trkpt>
      <trkpt lat="43.43036" lon="-0.57674">
        <ele>177.02</ele>
        <time>2021-07-04T08:39:57Z</time>
      </trkpt>
      <trkpt lat="43.43021" lon="-0.57655">
        <ele>178.94</ele>
        <time>2021-07-04T08:40:12Z</time>
      </trkpt>
      <trkpt lat="43.43019" lon="-0.57652">
        <ele>179.42</ele>
        <time>2021-07-04T08:40:14Z</time>
      </trkpt>
      <trkpt lat="43.43018" lon="-0.57651">
        <ele>179.42</ele>
        <time>2021-07-04T08:40:15Z</time>
      </trkpt>
      <trkpt lat="43.43018" lon="-0.57649">
        <ele>179.9</ele>
        <time>2021-07-04T08:40:16Z</time>
      </trkpt>
      <trkpt lat="43.43017" lon="-0.57647">
        <ele>180.38</ele>
        <time>2021-07-04T08:40:17Z</time>
      </trkpt>
      <trkpt lat="43.43016" lon="-0.57646">
        <ele>180.38</ele>
        <time>2021-07-04T08:40:18Z</time>
      </trkpt>
      <trkpt lat="43.43016" lon="-0.57642">
        <ele>180.87</ele>
        <time>2021-07-04T08:40:20Z</time>
      </trkpt>
      <trkpt lat="43.43013" lon="-0.57632">
        <ele>183.27</ele>
        <time>2021-07-04T08:40:27Z</time>
      </trkpt>
      <trkpt lat="43.43007" lon="-0.57611">
        <ele>187.59</ele>
        <time>2021-07-04T08:40:41Z</time>
      </trkpt>
      <trkpt lat="43.42996" lon="-0.57589">
        <ele>188.08</ele>
        <time>2021-07-04T08:40:55Z</time>
      </trkpt>
      <trkpt lat="43.42993" lon="-0.57584">
        <ele>188.08</ele>
        <time>2021-07-04T08:40:59Z</time>
      </trkpt>
      <trkpt lat="43.42979" lon="-0.57569">
        <ele>190</ele>
        <time>2021-07-04T08:41:14Z</time>
      </trkpt>
      <trkpt lat="43.42971" lon="-0.57552">
        <ele>190.96</ele>
        <time>2021-07-04T08:41:26Z</time>
      </trkpt>
      <trkpt lat="43.42964" lon="-0.57531">
        <ele>192.88</ele>
        <time>2021-07-04T08:41:39Z</time>
      </trkpt>
      <trkpt lat="43.42952" lon="-0.57502">
        <ele>193.36</ele>
        <time>2021-07-04T08:41:54Z</time>
      </trkpt>
      <trkpt lat="43.42943" lon="-0.57481">
        <ele>192.4</ele>
        <time>2021-07-04T08:42:05Z</time>
      </trkpt>
      <trkpt lat="43.42929" lon="-0.57449">
        <ele>195.77</ele>
        <time>2021-07-04T08:42:17Z</time>
      </trkpt>
      <trkpt lat="43.42918" lon="-0.57423">
        <ele>198.65</ele>
        <time>2021-07-04T08:42:28Z</time>
      </trkpt>
      <trkpt lat="43.42909" lon="-0.574">
        <ele>203.94</ele>
        <time>2021-07-04T08:42:41Z</time>
      </trkpt>
      <trkpt lat="43.42908" lon="-0.5739">
        <ele>205.86</ele>
        <time>2021-07-04T08:42:46Z</time>
      </trkpt>
      <trkpt lat="43.42907" lon="-0.57387">
        <ele>205.86</ele>
        <time>2021-07-04T08:42:47Z</time>
      </trkpt>
      <trkpt lat="43.42903" lon="-0.57368">
        <ele>207.78</ele>
        <time>2021-07-04T08:42:58Z</time>
      </trkpt>
      <trkpt lat="43.42899" lon="-0.57346">
        <ele>213.55</ele>
        <time>2021-07-04T08:43:11Z</time>
      </trkpt>
      <trkpt lat="43.42893" lon="-0.5732">
        <ele>214.99</ele>
        <time>2021-07-04T08:43:23Z</time>
      </trkpt>
      <trkpt lat="43.42881" lon="-0.57282">
        <ele>212.59</ele>
        <time>2021-07-04T08:43:31Z</time>
      </trkpt>
      <trkpt lat="43.4288" lon="-0.57276">
        <ele>211.63</ele>
        <time>2021-07-04T08:43:32Z</time>
      </trkpt>
      <trkpt lat="43.42864" lon="-0.57248">
        <ele>208.26</ele>
        <time>2021-07-04T08:43:38Z</time>
      </trkpt>
      <trkpt lat="43.4286" lon="-0.57244">
        <ele>207.3</ele>
        <time>2021-07-04T08:43:39Z</time>
      </trkpt>
      <trkpt lat="43.42857" lon="-0.57238">
        <ele>206.34</ele>
        <time>2021-07-04T08:43:40Z</time>
      </trkpt>
      <trkpt lat="43.42853" lon="-0.57231">
        <ele>205.38</ele>
        <time>2021-07-04T08:43:41Z</time>
      </trkpt>
      <trkpt lat="43.4285" lon="-0.57225">
        <ele>203.94</ele>
        <time>2021-07-04T08:43:42Z</time>
      </trkpt>
      <trkpt lat="43.42847" lon="-0.5722">
        <ele>202.98</ele>
        <time>2021-07-04T08:43:43Z</time>
      </trkpt>
      <trkpt lat="43.42832" lon="-0.57192">
        <ele>202.49</ele>
        <time>2021-07-04T08:43:52Z</time>
      </trkpt>
      <trkpt lat="43.42814" lon="-0.57139">
        <ele>204.42</ele>
        <time>2021-07-04T08:44:05Z</time>
      </trkpt>
      <trkpt lat="43.42791" lon="-0.57098">
        <ele>204.9</ele>
        <time>2021-07-04T08:44:16Z</time>
      </trkpt>
      <trkpt lat="43.42767" lon="-0.57052">
        <ele>206.82</ele>
        <time>2021-07-04T08:44:28Z</time>
      </trkpt>
      <trkpt lat="43.42742" lon="-0.57021">
        <ele>209.22</ele>
        <time>2021-07-04T08:44:40Z</time>
      </trkpt>
      <trkpt lat="43.42712" lon="-0.56982">
        <ele>210.19</ele>
        <time>2021-07-04T08:44:51Z</time>
      </trkpt>
      <trkpt lat="43.42701" lon="-0.56955">
        <ele>210.19</ele>
        <time>2021-07-04T08:44:58Z</time>
      </trkpt>
      <trkpt lat="43.42698" lon="-0.56948">
        <ele>210.19</ele>
        <time>2021-07-04T08:44:59Z</time>
      </trkpt>
      <trkpt lat="43.42695" lon="-0.5694">
        <ele>210.19</ele>
        <time>2021-07-04T08:45:00Z</time>
      </trkpt>
      <trkpt lat="43.42687" lon="-0.56918">
        <ele>210.19</ele>
        <time>2021-07-04T08:45:03Z</time>
      </trkpt>
      <trkpt lat="43.42685" lon="-0.56909">
        <ele>211.15</ele>
        <time>2021-07-04T08:45:04Z</time>
      </trkpt>
      <trkpt lat="43.42684" lon="-0.56901">
        <ele>211.63</ele>
        <time>2021-07-04T08:45:05Z</time>
      </trkpt>
      <trkpt lat="43.42684" lon="-0.56893">
        <ele>212.11</ele>
        <time>2021-07-04T08:45:06Z</time>
      </trkpt>
      <trkpt lat="43.42683" lon="-0.56886">
        <ele>212.59</ele>
        <time>2021-07-04T08:45:07Z</time>
      </trkpt>
      <trkpt lat="43.42683" lon="-0.56879">
        <ele>213.07</ele>
        <time>2021-07-04T08:45:08Z</time>
      </trkpt>
      <trkpt lat="43.42683" lon="-0.56873">
        <ele>213.55</ele>
        <time>2021-07-04T08:45:09Z</time>
      </trkpt>
      <trkpt lat="43.4268" lon="-0.56845">
        <ele>215.95</ele>
        <time>2021-07-04T08:45:14Z</time>
      </trkpt>
      <trkpt lat="43.42655" lon="-0.56778">
        <ele>214.99</ele>
        <time>2021-07-04T08:45:24Z</time>
      </trkpt>
      <trkpt lat="43.42646" lon="-0.56751">
        <ele>213.55</ele>
        <time>2021-07-04T08:45:33Z</time>
      </trkpt>
      <trkpt lat="43.42631" lon="-0.56701">
        <ele>214.99</ele>
        <time>2021-07-04T08:45:44Z</time>
      </trkpt>
      <trkpt lat="43.42615" lon="-0.56661">
        <ele>211.15</ele>
        <time>2021-07-04T08:45:55Z</time>
      </trkpt>
      <trkpt lat="43.42613" lon="-0.56659">
        <ele>211.15</ele>
        <time>2021-07-04T08:45:56Z</time>
      </trkpt>
      <trkpt lat="43.42611" lon="-0.56654">
        <ele>210.67</ele>
        <time>2021-07-04T08:45:58Z</time>
      </trkpt>
      <trkpt lat="43.42598" lon="-0.56628">
        <ele>213.55</ele>
        <time>2021-07-04T08:46:12Z</time>
      </trkpt>
      <trkpt lat="43.42588" lon="-0.56605">
        <ele>214.51</ele>
        <time>2021-07-04T08:46:26Z</time>
      </trkpt>
      <trkpt lat="43.42581" lon="-0.56583">
        <ele>214.99</ele>
        <time>2021-07-04T08:46:40Z</time>
      </trkpt>
      <trkpt lat="43.42579" lon="-0.5658">
        <ele>214.99</ele>
        <time>2021-07-04T08:46:42Z</time>
      </trkpt>
      <trkpt lat="43.42579" lon="-0.56578">
        <ele>214.99</ele>
        <time>2021-07-04T08:46:43Z</time>
      </trkpt>
      <trkpt lat="43.42577" lon="-0.56574">
        <ele>214.99</ele>
        <time>2021-07-04T08:46:45Z</time>
      </trkpt>
      <trkpt lat="43.42576" lon="-0.5657">
        <ele>214.99</ele>
        <time>2021-07-04T08:46:48Z</time>
      </trkpt>
      <trkpt lat="43.42568" lon="-0.5655">
        <ele>216.43</ele>
        <time>2021-07-04T08:46:59Z</time>
      </trkpt>
      <trkpt lat="43.42554" lon="-0.5652">
        <ele>217.4</ele>
        <time>2021-07-04T08:47:15Z</time>
      </trkpt>
      <trkpt lat="43.42543" lon="-0.56501">
        <ele>217.88</ele>
        <time>2021-07-04T08:47:26Z</time>
      </trkpt>
      <trkpt lat="43.42541" lon="-0.56497">
        <ele>218.36</ele>
        <time>2021-07-04T08:47:28Z</time>
      </trkpt>
      <trkpt lat="43.4254" lon="-0.56494">
        <ele>218.36</ele>
        <time>2021-07-04T08:47:29Z</time>
      </trkpt>
      <trkpt lat="43.42539" lon="-0.56492">
        <ele>218.84</ele>
        <time>2021-07-04T08:47:30Z</time>
      </trkpt>
      <trkpt lat="43.42533" lon="-0.56479">
        <ele>219.8</ele>
        <time>2021-07-04T08:47:37Z</time>
      </trkpt>
      <trkpt lat="43.42532" lon="-0.56478">
        <ele>219.8</ele>
        <time>2021-07-04T08:47:38Z</time>
      </trkpt>
      <trkpt lat="43.42511" lon="-0.56463">
        <ele>222.68</ele>
        <time>2021-07-04T08:47:53Z</time>
      </trkpt>
      <trkpt lat="43.42489" lon="-0.56443">
        <ele>223.64</ele>
        <time>2021-07-04T08:48:09Z</time>
      </trkpt>
      <trkpt lat="43.42472" lon="-0.56413">
        <ele>225.57</ele>
        <time>2021-07-04T08:48:26Z</time>
      </trkpt>
      <trkpt lat="43.42447" lon="-0.5636">
        <ele>222.2</ele>
        <time>2021-07-04T08:48:40Z</time>
      </trkpt>
      <trkpt lat="43.42421" lon="-0.56273">
        <ele>217.88</ele>
        <time>2021-07-04T08:48:51Z</time>
      </trkpt>
      <trkpt lat="43.42415" lon="-0.56255">
        <ele>217.88</ele>
        <time>2021-07-04T08:48:54Z</time>
      </trkpt>
      <trkpt lat="43.42414" lon="-0.56249">
        <ele>217.88</ele>
        <time>2021-07-04T08:48:55Z</time>
      </trkpt>
      <trkpt lat="43.42403" lon="-0.56214">
        <ele>217.88</ele>
        <time>2021-07-04T08:49:05Z</time>
      </trkpt>
      <trkpt lat="43.42401" lon="-0.56217">
        <ele>217.88</ele>
        <time>2021-07-04T08:49:07Z</time>
      </trkpt>
      <trkpt lat="43.424" lon="-0.56221">
        <ele>217.88</ele>
        <time>2021-07-04T08:49:08Z</time>
      </trkpt>
      <trkpt lat="43.42399" lon="-0.56224">
        <ele>217.88</ele>
        <time>2021-07-04T08:49:09Z</time>
      </trkpt>
      <trkpt lat="43.42383" lon="-0.56294">
        <ele>211.63</ele>
        <time>2021-07-04T08:49:18Z</time>
      </trkpt>
      <trkpt lat="43.4236" lon="-0.56412">
        <ele>202.49</ele>
        <time>2021-07-04T08:49:29Z</time>
      </trkpt>
      <trkpt lat="43.42354" lon="-0.56445">
        <ele>199.61</ele>
        <time>2021-07-04T08:49:33Z</time>
      </trkpt>
      <trkpt lat="43.42349" lon="-0.56458">
        <ele>198.17</ele>
        <time>2021-07-04T08:49:35Z</time>
      </trkpt>
      <trkpt lat="43.42347" lon="-0.56466">
        <ele>197.69</ele>
        <time>2021-07-04T08:49:36Z</time>
      </trkpt>
      <trkpt lat="43.42344" lon="-0.56474">
        <ele>196.73</ele>
        <time>2021-07-04T08:49:37Z</time>
      </trkpt>
      <trkpt lat="43.42338" lon="-0.56488">
        <ele>195.77</ele>
        <time>2021-07-04T08:49:39Z</time>
      </trkpt>
      <trkpt lat="43.42334" lon="-0.56494">
        <ele>194.8</ele>
        <time>2021-07-04T08:49:40Z</time>
      </trkpt>
      <trkpt lat="43.42329" lon="-0.56498">
        <ele>194.32</ele>
        <time>2021-07-04T08:49:41Z</time>
      </trkpt>
      <trkpt lat="43.42324" lon="-0.565">
        <ele>193.36</ele>
        <time>2021-07-04T08:49:42Z</time>
      </trkpt>
      <trkpt lat="43.42317" lon="-0.565">
        <ele>192.4</ele>
        <time>2021-07-04T08:49:43Z</time>
      </trkpt>
      <trkpt lat="43.4231" lon="-0.565">
        <ele>191.44</ele>
        <time>2021-07-04T08:49:44Z</time>
      </trkpt>
      <trkpt lat="43.4228" lon="-0.56506">
        <ele>186.15</ele>
        <time>2021-07-04T08:49:48Z</time>
      </trkpt>
      <trkpt lat="43.42273" lon="-0.56509">
        <ele>184.71</ele>
        <time>2021-07-04T08:49:49Z</time>
      </trkpt>
      <trkpt lat="43.42238" lon="-0.56529">
        <ele>178.46</ele>
        <time>2021-07-04T08:49:54Z</time>
      </trkpt>
      <trkpt lat="43.42152" lon="-0.56567">
        <ele>165.96</ele>
        <time>2021-07-04T08:50:06Z</time>
      </trkpt>
      <trkpt lat="43.42131" lon="-0.56576">
        <ele>162.12</ele>
        <time>2021-07-04T08:50:10Z</time>
      </trkpt>
      <trkpt lat="43.42128" lon="-0.56581">
        <ele>161.16</ele>
        <time>2021-07-04T08:50:11Z</time>
      </trkpt>
      <trkpt lat="43.42126" lon="-0.56586">
        <ele>160.2</ele>
        <time>2021-07-04T08:50:12Z</time>
      </trkpt>
      <trkpt lat="43.42125" lon="-0.56593">
        <ele>159.24</ele>
        <time>2021-07-04T08:50:13Z</time>
      </trkpt>
      <trkpt lat="43.42124" lon="-0.566">
        <ele>158.27</ele>
        <time>2021-07-04T08:50:14Z</time>
      </trkpt>
      <trkpt lat="43.421" lon="-0.56709">
        <ele>151.54</ele>
        <time>2021-07-04T08:50:25Z</time>
      </trkpt>
      <trkpt lat="43.42086" lon="-0.56762">
        <ele>149.14</ele>
        <time>2021-07-04T08:50:30Z</time>
      </trkpt>
      <trkpt lat="43.42021" lon="-0.56909">
        <ele>141.45</ele>
        <time>2021-07-04T08:50:44Z</time>
      </trkpt>
      <trkpt lat="43.41979" lon="-0.57008">
        <ele>137.61</ele>
        <time>2021-07-04T08:50:53Z</time>
      </trkpt>
      <trkpt lat="43.41974" lon="-0.57016">
        <ele>137.13</ele>
        <time>2021-07-04T08:50:54Z</time>
      </trkpt>
      <trkpt lat="43.41968" lon="-0.57024">
        <ele>136.64</ele>
        <time>2021-07-04T08:50:55Z</time>
      </trkpt>
      <trkpt lat="43.41928" lon="-0.57077">
        <ele>135.68</ele>
        <time>2021-07-04T08:51:02Z</time>
      </trkpt>
      <trkpt lat="43.41925" lon="-0.57086">
        <ele>135.68</ele>
        <time>2021-07-04T08:51:03Z</time>
      </trkpt>
      <trkpt lat="43.41922" lon="-0.57095">
        <ele>135.68</ele>
        <time>2021-07-04T08:51:04Z</time>
      </trkpt>
      <trkpt lat="43.41899" lon="-0.57185">
        <ele>134.72</ele>
        <time>2021-07-04T08:51:15Z</time>
      </trkpt>
      <trkpt lat="43.41896" lon="-0.57191">
        <ele>134.72</ele>
        <time>2021-07-04T08:51:16Z</time>
      </trkpt>
      <trkpt lat="43.41892" lon="-0.57197">
        <ele>134.24</ele>
        <time>2021-07-04T08:51:17Z</time>
      </trkpt>
      <trkpt lat="43.41887" lon="-0.57201">
        <ele>134.24</ele>
        <time>2021-07-04T08:51:18Z</time>
      </trkpt>
      <trkpt lat="43.41882" lon="-0.57204">
        <ele>134.24</ele>
        <time>2021-07-04T08:51:19Z</time>
      </trkpt>
      <trkpt lat="43.41877" lon="-0.57207">
        <ele>133.76</ele>
        <time>2021-07-04T08:51:20Z</time>
      </trkpt>
      <trkpt lat="43.41871" lon="-0.57209">
        <ele>133.76</ele>
        <time>2021-07-04T08:51:21Z</time>
      </trkpt>
      <trkpt lat="43.41866" lon="-0.57211">
        <ele>133.76</ele>
        <time>2021-07-04T08:51:22Z</time>
      </trkpt>
      <trkpt lat="43.41828" lon="-0.57225">
        <ele>134.24</ele>
        <time>2021-07-04T08:51:29Z</time>
      </trkpt>
      <trkpt lat="43.41822" lon="-0.57226">
        <ele>134.24</ele>
        <time>2021-07-04T08:51:30Z</time>
      </trkpt>
      <trkpt lat="43.41817" lon="-0.57225">
        <ele>134.24</ele>
        <time>2021-07-04T08:51:31Z</time>
      </trkpt>
      <trkpt lat="43.41761" lon="-0.57218">
        <ele>134.24</ele>
        <time>2021-07-04T08:51:42Z</time>
      </trkpt>
      <trkpt lat="43.41757" lon="-0.57219">
        <ele>134.24</ele>
        <time>2021-07-04T08:51:43Z</time>
      </trkpt>
      <trkpt lat="43.41752" lon="-0.57222">
        <ele>134.24</ele>
        <time>2021-07-04T08:51:44Z</time>
      </trkpt>
      <trkpt lat="43.41748" lon="-0.57227">
        <ele>134.24</ele>
        <time>2021-07-04T08:51:45Z</time>
      </trkpt>
      <trkpt lat="43.41746" lon="-0.57233">
        <ele>134.24</ele>
        <time>2021-07-04T08:51:46Z</time>
      </trkpt>
      <trkpt lat="43.41743" lon="-0.57239">
        <ele>134.24</ele>
        <time>2021-07-04T08:51:47Z</time>
      </trkpt>
      <trkpt lat="43.41742" lon="-0.57246">
        <ele>134.24</ele>
        <time>2021-07-04T08:51:48Z</time>
      </trkpt>
      <trkpt lat="43.41708" lon="-0.57383">
        <ele>132.8</ele>
        <time>2021-07-04T08:52:06Z</time>
      </trkpt>
      <trkpt lat="43.41694" lon="-0.5743">
        <ele>132.32</ele>
        <time>2021-07-04T08:52:12Z</time>
      </trkpt>
      <trkpt lat="43.41691" lon="-0.57437">
        <ele>132.32</ele>
        <time>2021-07-04T08:52:13Z</time>
      </trkpt>
      <trkpt lat="43.41689" lon="-0.57445">
        <ele>132.32</ele>
        <time>2021-07-04T08:52:14Z</time>
      </trkpt>
      <trkpt lat="43.41687" lon="-0.57453">
        <ele>132.32</ele>
        <time>2021-07-04T08:52:15Z</time>
      </trkpt>
      <trkpt lat="43.41685" lon="-0.57461">
        <ele>132.32</ele>
        <time>2021-07-04T08:52:16Z</time>
      </trkpt>
      <trkpt lat="43.41652" lon="-0.57569">
        <ele>131.84</ele>
        <time>2021-07-04T08:52:32Z</time>
      </trkpt>
      <trkpt lat="43.41632" lon="-0.57601">
        <ele>132.32</ele>
        <time>2021-07-04T08:52:41Z</time>
      </trkpt>
      <trkpt lat="43.41628" lon="-0.576">
        <ele>132.32</ele>
        <time>2021-07-04T08:52:42Z</time>
      </trkpt>
      <trkpt lat="43.4162" lon="-0.57595">
        <ele>132.32</ele>
        <time>2021-07-04T08:52:44Z</time>
      </trkpt>
      <trkpt lat="43.41616" lon="-0.57593">
        <ele>132.8</ele>
        <time>2021-07-04T08:52:45Z</time>
      </trkpt>
      <trkpt lat="43.41552" lon="-0.57549">
        <ele>134.72</ele>
        <time>2021-07-04T08:53:01Z</time>
      </trkpt>
      <trkpt lat="43.4154" lon="-0.57541">
        <ele>135.68</ele>
        <time>2021-07-04T08:53:04Z</time>
      </trkpt>
      <trkpt lat="43.41536" lon="-0.57539">
        <ele>135.68</ele>
        <time>2021-07-04T08:53:05Z</time>
      </trkpt>
      <trkpt lat="43.41461" lon="-0.57501">
        <ele>138.09</ele>
        <time>2021-07-04T08:53:23Z</time>
      </trkpt>
      <trkpt lat="43.4139" lon="-0.57471">
        <ele>137.61</ele>
        <time>2021-07-04T08:53:38Z</time>
      </trkpt>
      <trkpt lat="43.41289" lon="-0.57462">
        <ele>133.28</ele>
        <time>2021-07-04T08:53:54Z</time>
      </trkpt>
      <trkpt lat="43.41187" lon="-0.57486">
        <ele>129.92</ele>
        <time>2021-07-04T08:54:08Z</time>
      </trkpt>
      <trkpt lat="43.41133" lon="-0.57499">
        <ele>129.92</ele>
        <time>2021-07-04T08:54:18Z</time>
      </trkpt>
      <trkpt lat="43.41128" lon="-0.57499">
        <ele>129.92</ele>
        <time>2021-07-04T08:54:19Z</time>
      </trkpt>
      <trkpt lat="43.41119" lon="-0.57501">
        <ele>129.92</ele>
        <time>2021-07-04T08:54:21Z</time>
      </trkpt>
      <trkpt lat="43.41109" lon="-0.57499">
        <ele>129.92</ele>
        <time>2021-07-04T08:54:23Z</time>
      </trkpt>
      <trkpt lat="43.41103" lon="-0.57495">
        <ele>129.92</ele>
        <time>2021-07-04T08:54:24Z</time>
      </trkpt>
      <trkpt lat="43.41101" lon="-0.57492">
        <ele>129.92</ele>
        <time>2021-07-04T08:54:25Z</time>
      </trkpt>
      <trkpt lat="43.41086" lon="-0.57474">
        <ele>129.43</ele>
        <time>2021-07-04T08:54:29Z</time>
      </trkpt>
      <trkpt lat="43.41078" lon="-0.57456">
        <ele>128.95</ele>
        <time>2021-07-04T08:54:32Z</time>
      </trkpt>
      <trkpt lat="43.41076" lon="-0.57449">
        <ele>128.47</ele>
        <time>2021-07-04T08:54:33Z</time>
      </trkpt>
      <trkpt lat="43.41073" lon="-0.57429">
        <ele>127.51</ele>
        <time>2021-07-04T08:54:36Z</time>
      </trkpt>
      <trkpt lat="43.41072" lon="-0.57422">
        <ele>127.03</ele>
        <time>2021-07-04T08:54:37Z</time>
      </trkpt>
      <trkpt lat="43.41072" lon="-0.57415">
        <ele>126.55</ele>
        <time>2021-07-04T08:54:38Z</time>
      </trkpt>
      <trkpt lat="43.41062" lon="-0.57327">
        <ele>126.07</ele>
        <time>2021-07-04T08:54:51Z</time>
      </trkpt>
      <trkpt lat="43.41061" lon="-0.5732">
        <ele>126.55</ele>
        <time>2021-07-04T08:54:52Z</time>
      </trkpt>
      <trkpt lat="43.41059" lon="-0.57314">
        <ele>126.55</ele>
        <time>2021-07-04T08:54:53Z</time>
      </trkpt>
      <trkpt lat="43.41051" lon="-0.57295">
        <ele>127.03</ele>
        <time>2021-07-04T08:54:56Z</time>
      </trkpt>
      <trkpt lat="43.41048" lon="-0.5729">
        <ele>126.55</ele>
        <time>2021-07-04T08:54:57Z</time>
      </trkpt>
      <trkpt lat="43.41044" lon="-0.57284">
        <ele>127.03</ele>
        <time>2021-07-04T08:54:58Z</time>
      </trkpt>
      <trkpt lat="43.41024" lon="-0.5726">
        <ele>127.03</ele>
        <time>2021-07-04T08:55:03Z</time>
      </trkpt>
      <trkpt lat="43.41021" lon="-0.57255">
        <ele>127.03</ele>
        <time>2021-07-04T08:55:04Z</time>
      </trkpt>
      <trkpt lat="43.40997" lon="-0.5722">
        <ele>127.51</ele>
        <time>2021-07-04T08:55:11Z</time>
      </trkpt>
      <trkpt lat="43.40991" lon="-0.57209">
        <ele>127.99</ele>
        <time>2021-07-04T08:55:13Z</time>
      </trkpt>
      <trkpt lat="43.40975" lon="-0.57165">
        <ele>127.51</ele>
        <time>2021-07-04T08:55:20Z</time>
      </trkpt>
      <trkpt lat="43.40964" lon="-0.57126">
        <ele>127.99</ele>
        <time>2021-07-04T08:55:26Z</time>
      </trkpt>
      <trkpt lat="43.4095" lon="-0.57067">
        <ele>127.99</ele>
        <time>2021-07-04T08:55:35Z</time>
      </trkpt>
      <trkpt lat="43.40913" lon="-0.56913">
        <ele>129.92</ele>
        <time>2021-07-04T08:55:58Z</time>
      </trkpt>
      <trkpt lat="43.4089" lon="-0.56827">
        <ele>130.4</ele>
        <time>2021-07-04T08:56:11Z</time>
      </trkpt>
      <trkpt lat="43.40876" lon="-0.56754">
        <ele>131.84</ele>
        <time>2021-07-04T08:56:22Z</time>
      </trkpt>
      <trkpt lat="43.40869" lon="-0.56734">
        <ele>132.32</ele>
        <time>2021-07-04T08:56:26Z</time>
      </trkpt>
      <trkpt lat="43.40866" lon="-0.56732">
        <ele>132.8</ele>
        <time>2021-07-04T08:56:27Z</time>
      </trkpt>
      <trkpt lat="43.40862" lon="-0.56732">
        <ele>132.8</ele>
        <time>2021-07-04T08:56:28Z</time>
      </trkpt>
      <trkpt lat="43.40859" lon="-0.56733">
        <ele>132.8</ele>
        <time>2021-07-04T08:56:29Z</time>
      </trkpt>
      <trkpt lat="43.40854" lon="-0.56734">
        <ele>132.8</ele>
        <time>2021-07-04T08:56:30Z</time>
      </trkpt>
      <trkpt lat="43.40845" lon="-0.56736">
        <ele>133.28</ele>
        <time>2021-07-04T08:56:32Z</time>
      </trkpt>
      <trkpt lat="43.4084" lon="-0.56738">
        <ele>133.28</ele>
        <time>2021-07-04T08:56:33Z</time>
      </trkpt>
      <trkpt lat="43.40765" lon="-0.56744">
        <ele>132.8</ele>
        <time>2021-07-04T08:56:47Z</time>
      </trkpt>
      <trkpt lat="43.4073" lon="-0.56747">
        <ele>133.28</ele>
        <time>2021-07-04T08:56:54Z</time>
      </trkpt>
      <trkpt lat="43.40704" lon="-0.56757">
        <ele>133.76</ele>
        <time>2021-07-04T08:57:00Z</time>
      </trkpt>
      <trkpt lat="43.40699" lon="-0.56757">
        <ele>133.76</ele>
        <time>2021-07-04T08:57:01Z</time>
      </trkpt>
      <trkpt lat="43.40695" lon="-0.56756">
        <ele>133.76</ele>
        <time>2021-07-04T08:57:02Z</time>
      </trkpt>
      <trkpt lat="43.40691" lon="-0.56751">
        <ele>133.76</ele>
        <time>2021-07-04T08:57:03Z</time>
      </trkpt>
      <trkpt lat="43.40688" lon="-0.56746">
        <ele>134.24</ele>
        <time>2021-07-04T08:57:04Z</time>
      </trkpt>
      <trkpt lat="43.40687" lon="-0.56743">
        <ele>134.24</ele>
        <time>2021-07-04T08:57:05Z</time>
      </trkpt>
      <trkpt lat="43.40685" lon="-0.56738">
        <ele>133.76</ele>
        <time>2021-07-04T08:57:06Z</time>
      </trkpt>
      <trkpt lat="43.40684" lon="-0.56732">
        <ele>133.76</ele>
        <time>2021-07-04T08:57:07Z</time>
      </trkpt>
      <trkpt lat="43.40673" lon="-0.56696">
        <ele>133.76</ele>
        <time>2021-07-04T08:57:13Z</time>
      </trkpt>
      <trkpt lat="43.40671" lon="-0.5669">
        <ele>133.76</ele>
        <time>2021-07-04T08:57:14Z</time>
      </trkpt>
      <trkpt lat="43.40665" lon="-0.5668">
        <ele>133.76</ele>
        <time>2021-07-04T08:57:16Z</time>
      </trkpt>
      <trkpt lat="43.40661" lon="-0.56676">
        <ele>133.76</ele>
        <time>2021-07-04T08:57:17Z</time>
      </trkpt>
      <trkpt lat="43.40657" lon="-0.56673">
        <ele>133.76</ele>
        <time>2021-07-04T08:57:18Z</time>
      </trkpt>
      <trkpt lat="43.4062" lon="-0.56649">
        <ele>134.72</ele>
        <time>2021-07-04T08:57:26Z</time>
      </trkpt>
      <trkpt lat="43.40612" lon="-0.56642">
        <ele>134.72</ele>
        <time>2021-07-04T08:57:28Z</time>
      </trkpt>
      <trkpt lat="43.40599" lon="-0.56636">
        <ele>134.72</ele>
        <time>2021-07-04T08:57:31Z</time>
      </trkpt>
      <trkpt lat="43.40594" lon="-0.56635">
        <ele>134.72</ele>
        <time>2021-07-04T08:57:32Z</time>
      </trkpt>
      <trkpt lat="43.40589" lon="-0.56635">
        <ele>134.72</ele>
        <time>2021-07-04T08:57:33Z</time>
      </trkpt>
      <trkpt lat="43.40585" lon="-0.56636">
        <ele>134.72</ele>
        <time>2021-07-04T08:57:34Z</time>
      </trkpt>
      <trkpt lat="43.40581" lon="-0.56639">
        <ele>134.72</ele>
        <time>2021-07-04T08:57:35Z</time>
      </trkpt>
      <trkpt lat="43.40578" lon="-0.56643">
        <ele>134.72</ele>
        <time>2021-07-04T08:57:36Z</time>
      </trkpt>
      <trkpt lat="43.40575" lon="-0.56647">
        <ele>134.24</ele>
        <time>2021-07-04T08:57:37Z</time>
      </trkpt>
      <trkpt lat="43.40571" lon="-0.5665">
        <ele>134.24</ele>
        <time>2021-07-04T08:57:38Z</time>
      </trkpt>
      <trkpt lat="43.40567" lon="-0.56653">
        <ele>134.24</ele>
        <time>2021-07-04T08:57:39Z</time>
      </trkpt>
      <trkpt lat="43.40563" lon="-0.56655">
        <ele>134.24</ele>
        <time>2021-07-04T08:57:40Z</time>
      </trkpt>
      <trkpt lat="43.40513" lon="-0.56668">
        <ele>135.2</ele>
        <time>2021-07-04T08:57:52Z</time>
      </trkpt>
    </trkseg>
  </trk>
</gpx>